<?xml version="1.0" encoding="UTF-8" standalone="no" ?>
<gpx xmlns="http://www.topografix.com/GPX/1/1" xmlns:xsi="http://www.w3.org/2001/XMLSchema-instance" xsi:schemaLocation="http://www.topografix.com/GPX/1/1 http://www.topografix.com/GPX/1/1/gpx.xsd" version="1.1" creator="VisuGPX - https://www.visugpx.com">
  <metadata>
    <name>Le circuit des chamois</name>
    <desc><![CDATA[Boucle non loin de StClaude et Septmoncel]]></desc>
  </metadata>
  <trk>
    <name><![CDATA[2019-05-23 07:23]]></name>
    <desc><![CDATA[<p>Heure de départ: 07:23 23 mai 2019<br/>Heure d'arrivée: 12:32 23 mai 2019<br/>Distance: 15,9 km (05:08)<br/>Temps déplacement: 04:17<br/>Vitesse moyenne: 3,09 km/h<br/>Vitesse moyenne mouv.: 3,71 km/h<br/>Vitesse Max.: 7,9 km/h<br/>Altitude minimale: 449 m<br/>Altitude maximale: 1212 m<br/>Vitesse de montée: 391,8 m/h<br/>Vitesse de descente: -496,2 m/h<br/>Gain d'altitude: 1118 m<br/>Perte d'altitude: -1107 m<br/>Temps de montée: 02:51<br/>Temps de descente: 02:13<br/></p><hr align="center" width="480" style="height: 2px; width: 517px"/>]]></desc>
    <trkseg>
      <trkpt lat="46.36959" lon="5.90395">
        <ele>1010.19</ele>
        <time>2019-05-23T05:23:29.841Z</time>
      </trkpt>
      <trkpt lat="46.36958" lon="5.90368">
        <ele>1016.51</ele>
        <time>2019-05-23T05:24:14.000Z</time>
      </trkpt>
      <trkpt lat="46.36953" lon="5.90343">
        <ele>1025.02</ele>
        <time>2019-05-23T05:24:49.000Z</time>
      </trkpt>
      <trkpt lat="46.36937" lon="5.90327">
        <ele>1020.67</ele>
        <time>2019-05-23T05:25:09.000Z</time>
      </trkpt>
      <trkpt lat="46.36919" lon="5.90321">
        <ele>1022.45</ele>
        <time>2019-05-23T05:25:28.000Z</time>
      </trkpt>
      <trkpt lat="46.369" lon="5.90319">
        <ele>1021.51</ele>
        <time>2019-05-23T05:25:41.000Z</time>
      </trkpt>
      <trkpt lat="46.36883" lon="5.90324">
        <ele>1027.23</ele>
        <time>2019-05-23T05:26:01.000Z</time>
      </trkpt>
      <trkpt lat="46.36871" lon="5.90302">
        <ele>1030.39</ele>
        <time>2019-05-23T05:26:48.000Z</time>
      </trkpt>
      <trkpt lat="46.36859" lon="5.9028">
        <ele>1031.83</ele>
        <time>2019-05-23T05:27:01.000Z</time>
      </trkpt>
      <trkpt lat="46.36849" lon="5.90257">
        <ele>1039.62</ele>
        <time>2019-05-23T05:27:21.000Z</time>
      </trkpt>
      <trkpt lat="46.36838" lon="5.90235">
        <ele>1044.11</ele>
        <time>2019-05-23T05:27:43.000Z</time>
      </trkpt>
      <trkpt lat="46.36842" lon="5.90208">
        <ele>1044.34</ele>
        <time>2019-05-23T05:27:56.000Z</time>
      </trkpt>
      <trkpt lat="46.36828" lon="5.90189">
        <ele>1051.77</ele>
        <time>2019-05-23T05:28:11.000Z</time>
      </trkpt>
      <trkpt lat="46.3683" lon="5.90163">
        <ele>1050.39</ele>
        <time>2019-05-23T05:28:26.000Z</time>
      </trkpt>
      <trkpt lat="46.36829" lon="5.90134">
        <ele>1053.35</ele>
        <time>2019-05-23T05:28:46.000Z</time>
      </trkpt>
      <trkpt lat="46.36822" lon="5.9011">
        <ele>1055.85</ele>
        <time>2019-05-23T05:29:01.000Z</time>
      </trkpt>
      <trkpt lat="46.36817" lon="5.90084">
        <ele>1050.74</ele>
        <time>2019-05-23T05:29:15.000Z</time>
      </trkpt>
      <trkpt lat="46.36816" lon="5.90057">
        <ele>1052.51</ele>
        <time>2019-05-23T05:29:32.000Z</time>
      </trkpt>
      <trkpt lat="46.36803" lon="5.90035">
        <ele>1056.82</ele>
        <time>2019-05-23T05:29:45.000Z</time>
      </trkpt>
      <trkpt lat="46.36799" lon="5.9001">
        <ele>1055.82</ele>
        <time>2019-05-23T05:29:58.000Z</time>
      </trkpt>
      <trkpt lat="46.36806" lon="5.89984">
        <ele>1059.25</ele>
        <time>2019-05-23T05:30:12.000Z</time>
      </trkpt>
      <trkpt lat="46.36797" lon="5.89961">
        <ele>1066.15</ele>
        <time>2019-05-23T05:30:24.000Z</time>
      </trkpt>
      <trkpt lat="46.36794" lon="5.89936">
        <ele>1063.51</ele>
        <time>2019-05-23T05:30:41.000Z</time>
      </trkpt>
      <trkpt lat="46.3679" lon="5.89909">
        <ele>1063.04</ele>
        <time>2019-05-23T05:30:57.000Z</time>
      </trkpt>
      <trkpt lat="46.36795" lon="5.89883">
        <ele>1058.35</ele>
        <time>2019-05-23T05:31:11.000Z</time>
      </trkpt>
      <trkpt lat="46.36782" lon="5.89865">
        <ele>1062.02</ele>
        <time>2019-05-23T05:31:22.000Z</time>
      </trkpt>
      <trkpt lat="46.36772" lon="5.89841">
        <ele>1060.78</ele>
        <time>2019-05-23T05:31:32.000Z</time>
      </trkpt>
      <trkpt lat="46.36764" lon="5.89819">
        <ele>1071.33</ele>
        <time>2019-05-23T05:31:49.000Z</time>
      </trkpt>
      <trkpt lat="46.36751" lon="5.898">
        <ele>1075.68</ele>
        <time>2019-05-23T05:32:05.000Z</time>
      </trkpt>
      <trkpt lat="46.36736" lon="5.89786">
        <ele>1074.21</ele>
        <time>2019-05-23T05:33:04.000Z</time>
      </trkpt>
      <trkpt lat="46.36724" lon="5.89765">
        <ele>1071.86</ele>
        <time>2019-05-23T05:33:27.000Z</time>
      </trkpt>
      <trkpt lat="46.36707" lon="5.89754">
        <ele>1073.22</ele>
        <time>2019-05-23T05:33:43.000Z</time>
      </trkpt>
      <trkpt lat="46.36697" lon="5.89733">
        <ele>1075.42</ele>
        <time>2019-05-23T05:33:58.000Z</time>
      </trkpt>
      <trkpt lat="46.36682" lon="5.89716">
        <ele>1078.48</ele>
        <time>2019-05-23T05:34:19.000Z</time>
      </trkpt>
      <trkpt lat="46.36669" lon="5.89697">
        <ele>1087.91</ele>
        <time>2019-05-23T05:34:40.000Z</time>
      </trkpt>
      <trkpt lat="46.36658" lon="5.89676">
        <ele>1083.13</ele>
        <time>2019-05-23T05:35:00.000Z</time>
      </trkpt>
      <trkpt lat="46.36655" lon="5.89649">
        <ele>1085.12</ele>
        <time>2019-05-23T05:35:18.000Z</time>
      </trkpt>
      <trkpt lat="46.36655" lon="5.89622">
        <ele>1084.12</ele>
        <time>2019-05-23T05:35:32.000Z</time>
      </trkpt>
      <trkpt lat="46.36655" lon="5.89595">
        <ele>1083.52</ele>
        <time>2019-05-23T05:35:44.000Z</time>
      </trkpt>
      <trkpt lat="46.36654" lon="5.89569">
        <ele>1087.1</ele>
        <time>2019-05-23T05:36:00.000Z</time>
      </trkpt>
      <trkpt lat="46.36647" lon="5.89543">
        <ele>1088.76</ele>
        <time>2019-05-23T05:36:15.000Z</time>
      </trkpt>
      <trkpt lat="46.3664" lon="5.89518">
        <ele>1092.62</ele>
        <time>2019-05-23T05:36:41.000Z</time>
      </trkpt>
      <trkpt lat="46.36645" lon="5.89492">
        <ele>1085.65</ele>
        <time>2019-05-23T05:37:25.000Z</time>
      </trkpt>
      <trkpt lat="46.36641" lon="5.89518">
        <ele>1086.04</ele>
        <time>2019-05-23T05:38:09.000Z</time>
      </trkpt>
      <trkpt lat="46.3664" lon="5.89544">
        <ele>1089.39</ele>
        <time>2019-05-23T05:38:46.000Z</time>
      </trkpt>
      <trkpt lat="46.36631" lon="5.89568">
        <ele>1091.67</ele>
        <time>2019-05-23T05:39:01.000Z</time>
      </trkpt>
      <trkpt lat="46.36622" lon="5.89591">
        <ele>1095.49</ele>
        <time>2019-05-23T05:39:16.000Z</time>
      </trkpt>
      <trkpt lat="46.36615" lon="5.89616">
        <ele>1095.45</ele>
        <time>2019-05-23T05:39:34.000Z</time>
      </trkpt>
      <trkpt lat="46.36609" lon="5.89642">
        <ele>1094.18</ele>
        <time>2019-05-23T05:39:56.000Z</time>
      </trkpt>
      <trkpt lat="46.36602" lon="5.89666">
        <ele>1091.55</ele>
        <time>2019-05-23T05:40:21.000Z</time>
      </trkpt>
      <trkpt lat="46.36599" lon="5.89694">
        <ele>1092.47</ele>
        <time>2019-05-23T05:40:34.000Z</time>
      </trkpt>
      <trkpt lat="46.36593" lon="5.8972">
        <ele>1085.79</ele>
        <time>2019-05-23T05:40:47.000Z</time>
      </trkpt>
      <trkpt lat="46.36582" lon="5.89741">
        <ele>1085.46</ele>
        <time>2019-05-23T05:40:59.000Z</time>
      </trkpt>
      <trkpt lat="46.3657" lon="5.89762">
        <ele>1082.78</ele>
        <time>2019-05-23T05:41:09.000Z</time>
      </trkpt>
      <trkpt lat="46.36562" lon="5.89785">
        <ele>1078.09</ele>
        <time>2019-05-23T05:41:22.000Z</time>
      </trkpt>
      <trkpt lat="46.36552" lon="5.89808">
        <ele>1070.72</ele>
        <time>2019-05-23T05:41:51.000Z</time>
      </trkpt>
      <trkpt lat="46.3654" lon="5.89829">
        <ele>1072</ele>
        <time>2019-05-23T05:42:08.000Z</time>
      </trkpt>
      <trkpt lat="46.3652" lon="5.8983">
        <ele>1071.96</ele>
        <time>2019-05-23T05:42:25.000Z</time>
      </trkpt>
      <trkpt lat="46.36503" lon="5.89841">
        <ele>1069.34</ele>
        <time>2019-05-23T05:42:42.000Z</time>
      </trkpt>
      <trkpt lat="46.36485" lon="5.89837">
        <ele>1067.43</ele>
        <time>2019-05-23T05:43:16.000Z</time>
      </trkpt>
      <trkpt lat="46.36469" lon="5.89853">
        <ele>1061.56</ele>
        <time>2019-05-23T05:44:29.000Z</time>
      </trkpt>
      <trkpt lat="46.36456" lon="5.89872">
        <ele>1058.72</ele>
        <time>2019-05-23T05:44:43.000Z</time>
      </trkpt>
      <trkpt lat="46.36442" lon="5.89889">
        <ele>1058.23</ele>
        <time>2019-05-23T05:44:59.000Z</time>
      </trkpt>
      <trkpt lat="46.36427" lon="5.89905">
        <ele>1055.43</ele>
        <time>2019-05-23T05:45:19.000Z</time>
      </trkpt>
      <trkpt lat="46.36414" lon="5.89924">
        <ele>1047.48</ele>
        <time>2019-05-23T05:45:46.000Z</time>
      </trkpt>
      <trkpt lat="46.36397" lon="5.89933">
        <ele>1040.9</ele>
        <time>2019-05-23T05:46:08.000Z</time>
      </trkpt>
      <trkpt lat="46.36382" lon="5.89948">
        <ele>1035.42</ele>
        <time>2019-05-23T05:46:31.000Z</time>
      </trkpt>
      <trkpt lat="46.36365" lon="5.89958">
        <ele>1026.72</ele>
        <time>2019-05-23T05:47:46.000Z</time>
      </trkpt>
      <trkpt lat="46.36346" lon="5.89957">
        <ele>1018.35</ele>
        <time>2019-05-23T05:48:38.000Z</time>
      </trkpt>
      <trkpt lat="46.36328" lon="5.89959">
        <ele>1013.02</ele>
        <time>2019-05-23T05:49:01.000Z</time>
      </trkpt>
      <trkpt lat="46.36311" lon="5.8997">
        <ele>1002.76</ele>
        <time>2019-05-23T05:50:43.000Z</time>
      </trkpt>
      <trkpt lat="46.36294" lon="5.8998">
        <ele>994.53</ele>
        <time>2019-05-23T05:51:12.000Z</time>
      </trkpt>
      <trkpt lat="46.36278" lon="5.89996">
        <ele>990.65</ele>
        <time>2019-05-23T05:51:27.000Z</time>
      </trkpt>
      <trkpt lat="46.36264" lon="5.90013">
        <ele>988.74</ele>
        <time>2019-05-23T05:52:44.000Z</time>
      </trkpt>
      <trkpt lat="46.36252" lon="5.90033">
        <ele>983.02</ele>
        <time>2019-05-23T05:53:17.000Z</time>
      </trkpt>
      <trkpt lat="46.36235" lon="5.90044">
        <ele>969.42</ele>
        <time>2019-05-23T05:54:23.000Z</time>
      </trkpt>
      <trkpt lat="46.36218" lon="5.90051">
        <ele>964.35</ele>
        <time>2019-05-23T05:55:11.000Z</time>
      </trkpt>
      <trkpt lat="46.362" lon="5.90059">
        <ele>954.52</ele>
        <time>2019-05-23T05:55:52.000Z</time>
      </trkpt>
      <trkpt lat="46.3619" lon="5.90081">
        <ele>945.39</ele>
        <time>2019-05-23T05:56:42.000Z</time>
      </trkpt>
      <trkpt lat="46.36172" lon="5.90078">
        <ele>934.44</ele>
        <time>2019-05-23T05:57:43.000Z</time>
      </trkpt>
      <trkpt lat="46.36157" lon="5.90092">
        <ele>934.39</ele>
        <time>2019-05-23T05:58:06.000Z</time>
      </trkpt>
      <trkpt lat="46.36139" lon="5.90094">
        <ele>924.3</ele>
        <time>2019-05-23T05:58:56.000Z</time>
      </trkpt>
      <trkpt lat="46.3612" lon="5.90097">
        <ele>916.72</ele>
        <time>2019-05-23T05:59:56.000Z</time>
      </trkpt>
      <trkpt lat="46.36105" lon="5.90111">
        <ele>911.42</ele>
        <time>2019-05-23T06:00:57.000Z</time>
      </trkpt>
      <trkpt lat="46.36091" lon="5.90095">
        <ele>908.92</ele>
        <time>2019-05-23T06:01:49.000Z</time>
      </trkpt>
      <trkpt lat="46.36074" lon="5.90109">
        <ele>896.13</ele>
        <time>2019-05-23T06:03:55.000Z</time>
      </trkpt>
      <trkpt lat="46.36058" lon="5.90121">
        <ele>886.7</ele>
        <time>2019-05-23T06:04:18.000Z</time>
      </trkpt>
      <trkpt lat="46.36044" lon="5.9014">
        <ele>884</ele>
        <time>2019-05-23T06:04:36.000Z</time>
      </trkpt>
      <trkpt lat="46.3603" lon="5.90157">
        <ele>878.72</ele>
        <time>2019-05-23T06:05:05.000Z</time>
      </trkpt>
      <trkpt lat="46.36012" lon="5.90161">
        <ele>873.1</ele>
        <time>2019-05-23T06:05:22.000Z</time>
      </trkpt>
      <trkpt lat="46.35993" lon="5.90164">
        <ele>862.78</ele>
        <time>2019-05-23T06:05:46.000Z</time>
      </trkpt>
      <trkpt lat="46.35975" lon="5.90165">
        <ele>854.76</ele>
        <time>2019-05-23T06:06:08.000Z</time>
      </trkpt>
      <trkpt lat="46.35956" lon="5.9017">
        <ele>851.44</ele>
        <time>2019-05-23T06:06:21.000Z</time>
      </trkpt>
      <trkpt lat="46.35942" lon="5.90187">
        <ele>848.41</ele>
        <time>2019-05-23T06:07:09.000Z</time>
      </trkpt>
      <trkpt lat="46.35924" lon="5.90193">
        <ele>844.48</ele>
        <time>2019-05-23T06:07:57.000Z</time>
      </trkpt>
      <trkpt lat="46.35906" lon="5.90187">
        <ele>846.39</ele>
        <time>2019-05-23T06:08:13.000Z</time>
      </trkpt>
      <trkpt lat="46.35888" lon="5.90184">
        <ele>828.18</ele>
        <time>2019-05-23T06:08:43.000Z</time>
      </trkpt>
      <trkpt lat="46.35871" lon="5.90194">
        <ele>822.83</ele>
        <time>2019-05-23T06:09:22.000Z</time>
      </trkpt>
      <trkpt lat="46.35855" lon="5.9021">
        <ele>812.42</ele>
        <time>2019-05-23T06:09:46.000Z</time>
      </trkpt>
      <trkpt lat="46.35838" lon="5.90211">
        <ele>807.53</ele>
        <time>2019-05-23T06:10:37.000Z</time>
      </trkpt>
      <trkpt lat="46.35831" lon="5.90236">
        <ele>800.31</ele>
        <time>2019-05-23T06:11:14.000Z</time>
      </trkpt>
      <trkpt lat="46.35819" lon="5.90255">
        <ele>792.07</ele>
        <time>2019-05-23T06:11:37.000Z</time>
      </trkpt>
      <trkpt lat="46.35808" lon="5.90278">
        <ele>786.86</ele>
        <time>2019-05-23T06:11:56.000Z</time>
      </trkpt>
      <trkpt lat="46.3579" lon="5.90276">
        <ele>785.54</ele>
        <time>2019-05-23T06:12:16.000Z</time>
      </trkpt>
      <trkpt lat="46.35773" lon="5.90285">
        <ele>785.62</ele>
        <time>2019-05-23T06:12:40.000Z</time>
      </trkpt>
      <trkpt lat="46.35755" lon="5.90276">
        <ele>769.44</ele>
        <time>2019-05-23T06:13:39.000Z</time>
      </trkpt>
      <trkpt lat="46.35739" lon="5.90287">
        <ele>761.12</ele>
        <time>2019-05-23T06:14:07.000Z</time>
      </trkpt>
      <trkpt lat="46.3573" lon="5.9031">
        <ele>747.04</ele>
        <time>2019-05-23T06:15:08.000Z</time>
      </trkpt>
      <trkpt lat="46.35728" lon="5.90337">
        <ele>749.07</ele>
        <time>2019-05-23T06:15:21.000Z</time>
      </trkpt>
      <trkpt lat="46.35714" lon="5.90353">
        <ele>728.81</ele>
        <time>2019-05-23T06:16:48.000Z</time>
      </trkpt>
      <trkpt lat="46.35702" lon="5.90374">
        <ele>733.34</ele>
        <time>2019-05-23T06:17:03.000Z</time>
      </trkpt>
      <trkpt lat="46.35691" lon="5.90395">
        <ele>728.64</ele>
        <time>2019-05-23T06:17:15.000Z</time>
      </trkpt>
      <trkpt lat="46.35692" lon="5.90367">
        <ele>726.44</ele>
        <time>2019-05-23T06:17:53.000Z</time>
      </trkpt>
      <trkpt lat="46.35693" lon="5.90341">
        <ele>727.39</ele>
        <time>2019-05-23T06:18:12.000Z</time>
      </trkpt>
      <trkpt lat="46.35676" lon="5.90335">
        <ele>719.46</ele>
        <time>2019-05-23T06:18:54.000Z</time>
      </trkpt>
      <trkpt lat="46.35681" lon="5.9031">
        <ele>721.35</ele>
        <time>2019-05-23T06:19:20.000Z</time>
      </trkpt>
      <trkpt lat="46.35686" lon="5.90282">
        <ele>714.73</ele>
        <time>2019-05-23T06:19:36.000Z</time>
      </trkpt>
      <trkpt lat="46.35687" lon="5.90255">
        <ele>710.98</ele>
        <time>2019-05-23T06:19:48.000Z</time>
      </trkpt>
      <trkpt lat="46.35697" lon="5.90233">
        <ele>710.45</ele>
        <time>2019-05-23T06:20:13.000Z</time>
      </trkpt>
      <trkpt lat="46.3571" lon="5.90212">
        <ele>706.25</ele>
        <time>2019-05-23T06:20:37.000Z</time>
      </trkpt>
      <trkpt lat="46.35723" lon="5.90191">
        <ele>711.67</ele>
        <time>2019-05-23T06:21:25.000Z</time>
      </trkpt>
      <trkpt lat="46.35741" lon="5.90189">
        <ele>707.06</ele>
        <time>2019-05-23T06:21:58.000Z</time>
      </trkpt>
      <trkpt lat="46.35755" lon="5.90169">
        <ele>704.44</ele>
        <time>2019-05-23T06:22:12.000Z</time>
      </trkpt>
      <trkpt lat="46.35771" lon="5.90155">
        <ele>702.6</ele>
        <time>2019-05-23T06:22:24.000Z</time>
      </trkpt>
      <trkpt lat="46.35789" lon="5.90144">
        <ele>701.05</ele>
        <time>2019-05-23T06:22:37.000Z</time>
      </trkpt>
      <trkpt lat="46.35792" lon="5.90119">
        <ele>709.56</ele>
        <time>2019-05-23T06:24:19.000Z</time>
      </trkpt>
      <trkpt lat="46.35804" lon="5.90098">
        <ele>696.59</ele>
        <time>2019-05-23T06:24:48.000Z</time>
      </trkpt>
      <trkpt lat="46.35814" lon="5.90076">
        <ele>681.4</ele>
        <time>2019-05-23T06:26:27.000Z</time>
      </trkpt>
      <trkpt lat="46.35831" lon="5.90067">
        <ele>673.18</ele>
        <time>2019-05-23T06:27:20.000Z</time>
      </trkpt>
      <trkpt lat="46.35831" lon="5.90039">
        <ele>667.75</ele>
        <time>2019-05-23T06:27:52.000Z</time>
      </trkpt>
      <trkpt lat="46.3585" lon="5.90033">
        <ele>661.74</ele>
        <time>2019-05-23T06:28:34.000Z</time>
      </trkpt>
      <trkpt lat="46.35849" lon="5.90007">
        <ele>658.21</ele>
        <time>2019-05-23T06:28:52.000Z</time>
      </trkpt>
      <trkpt lat="46.35849" lon="5.8998">
        <ele>646.52</ele>
        <time>2019-05-23T06:29:45.000Z</time>
      </trkpt>
      <trkpt lat="46.35865" lon="5.89966">
        <ele>637.41</ele>
        <time>2019-05-23T06:31:51.000Z</time>
      </trkpt>
      <trkpt lat="46.35874" lon="5.89943">
        <ele>629.32</ele>
        <time>2019-05-23T06:32:29.000Z</time>
      </trkpt>
      <trkpt lat="46.35887" lon="5.89923">
        <ele>626.74</ele>
        <time>2019-05-23T06:32:51.000Z</time>
      </trkpt>
      <trkpt lat="46.35893" lon="5.89898">
        <ele>625.21</ele>
        <time>2019-05-23T06:33:09.000Z</time>
      </trkpt>
      <trkpt lat="46.35899" lon="5.89871">
        <ele>621.43</ele>
        <time>2019-05-23T06:33:37.000Z</time>
      </trkpt>
      <trkpt lat="46.35898" lon="5.89845">
        <ele>627.12</ele>
        <time>2019-05-23T06:33:58.000Z</time>
      </trkpt>
      <trkpt lat="46.359" lon="5.89817">
        <ele>619.74</ele>
        <time>2019-05-23T06:34:39.000Z</time>
      </trkpt>
      <trkpt lat="46.35899" lon="5.8979">
        <ele>620.29</ele>
        <time>2019-05-23T06:35:04.000Z</time>
      </trkpt>
      <trkpt lat="46.35908" lon="5.89767">
        <ele>623.7</ele>
        <time>2019-05-23T06:35:31.000Z</time>
      </trkpt>
      <trkpt lat="46.35897" lon="5.89746">
        <ele>617.17</ele>
        <time>2019-05-23T06:35:48.000Z</time>
      </trkpt>
      <trkpt lat="46.35902" lon="5.89721">
        <ele>610.22</ele>
        <time>2019-05-23T06:36:25.000Z</time>
      </trkpt>
      <trkpt lat="46.35902" lon="5.89694">
        <ele>600.87</ele>
        <time>2019-05-23T06:37:21.000Z</time>
      </trkpt>
      <trkpt lat="46.35911" lon="5.89671">
        <ele>597.7</ele>
        <time>2019-05-23T06:37:37.000Z</time>
      </trkpt>
      <trkpt lat="46.35927" lon="5.89661">
        <ele>596.37</ele>
        <time>2019-05-23T06:37:50.000Z</time>
      </trkpt>
      <trkpt lat="46.35941" lon="5.89643">
        <ele>591.82</ele>
        <time>2019-05-23T06:38:13.000Z</time>
      </trkpt>
      <trkpt lat="46.35948" lon="5.89619">
        <ele>592.33</ele>
        <time>2019-05-23T06:38:33.000Z</time>
      </trkpt>
      <trkpt lat="46.35956" lon="5.89595">
        <ele>586.44</ele>
        <time>2019-05-23T06:38:51.000Z</time>
      </trkpt>
      <trkpt lat="46.35968" lon="5.89575">
        <ele>582.26</ele>
        <time>2019-05-23T06:39:16.000Z</time>
      </trkpt>
      <trkpt lat="46.35984" lon="5.89561">
        <ele>568.2</ele>
        <time>2019-05-23T06:39:50.000Z</time>
      </trkpt>
      <trkpt lat="46.35999" lon="5.89547">
        <ele>567.57</ele>
        <time>2019-05-23T06:40:11.000Z</time>
      </trkpt>
      <trkpt lat="46.36011" lon="5.89527">
        <ele>566.42</ele>
        <time>2019-05-23T06:41:15.000Z</time>
      </trkpt>
      <trkpt lat="46.36023" lon="5.89506">
        <ele>557.18</ele>
        <time>2019-05-23T06:41:48.000Z</time>
      </trkpt>
      <trkpt lat="46.36028" lon="5.89481">
        <ele>547.64</ele>
        <time>2019-05-23T06:42:28.000Z</time>
      </trkpt>
      <trkpt lat="46.3601" lon="5.89476">
        <ele>547.6</ele>
        <time>2019-05-23T06:43:20.000Z</time>
      </trkpt>
      <trkpt lat="46.35992" lon="5.89484">
        <ele>547.65</ele>
        <time>2019-05-23T06:43:39.000Z</time>
      </trkpt>
      <trkpt lat="46.36001" lon="5.8946">
        <ele>536.8</ele>
        <time>2019-05-23T06:44:16.000Z</time>
      </trkpt>
      <trkpt lat="46.36008" lon="5.89436">
        <ele>537.58</ele>
        <time>2019-05-23T06:44:43.000Z</time>
      </trkpt>
      <trkpt lat="46.36002" lon="5.89411">
        <ele>539.77</ele>
        <time>2019-05-23T06:45:12.000Z</time>
      </trkpt>
      <trkpt lat="46.35984" lon="5.89409">
        <ele>527.97</ele>
        <time>2019-05-23T06:45:42.000Z</time>
      </trkpt>
      <trkpt lat="46.35966" lon="5.89403">
        <ele>523.03</ele>
        <time>2019-05-23T06:45:59.000Z</time>
      </trkpt>
      <trkpt lat="46.35956" lon="5.89427">
        <ele>518.75</ele>
        <time>2019-05-23T06:46:18.000Z</time>
      </trkpt>
      <trkpt lat="46.35943" lon="5.89408">
        <ele>509.39</ele>
        <time>2019-05-23T06:47:14.000Z</time>
      </trkpt>
      <trkpt lat="46.35923" lon="5.89409">
        <ele>507.41</ele>
        <time>2019-05-23T06:47:34.000Z</time>
      </trkpt>
      <trkpt lat="46.35941" lon="5.894">
        <ele>503.84</ele>
        <time>2019-05-23T06:48:08.000Z</time>
      </trkpt>
      <trkpt lat="46.35946" lon="5.89373">
        <ele>493.41</ele>
        <time>2019-05-23T06:48:49.000Z</time>
      </trkpt>
      <trkpt lat="46.3595" lon="5.89348">
        <ele>493.32</ele>
        <time>2019-05-23T06:49:13.000Z</time>
      </trkpt>
      <trkpt lat="46.35932" lon="5.8935">
        <ele>499.37</ele>
        <time>2019-05-23T06:50:04.000Z</time>
      </trkpt>
      <trkpt lat="46.35914" lon="5.89355">
        <ele>506.18</ele>
        <time>2019-05-23T06:50:18.000Z</time>
      </trkpt>
      <trkpt lat="46.35896" lon="5.89362">
        <ele>503.78</ele>
        <time>2019-05-23T06:50:33.000Z</time>
      </trkpt>
      <trkpt lat="46.35881" lon="5.8938">
        <ele>500.4</ele>
        <time>2019-05-23T06:50:47.000Z</time>
      </trkpt>
      <trkpt lat="46.3588" lon="5.89407">
        <ele>504.17</ele>
        <time>2019-05-23T06:50:56.000Z</time>
      </trkpt>
      <trkpt lat="46.35888" lon="5.89432">
        <ele>512.15</ele>
        <time>2019-05-23T06:51:08.000Z</time>
      </trkpt>
      <trkpt lat="46.35884" lon="5.89458">
        <ele>508.06</ele>
        <time>2019-05-23T06:51:21.000Z</time>
      </trkpt>
      <trkpt lat="46.3588" lon="5.89484">
        <ele>504.04</ele>
        <time>2019-05-23T06:51:43.000Z</time>
      </trkpt>
      <trkpt lat="46.35867" lon="5.89503">
        <ele>498.05</ele>
        <time>2019-05-23T06:51:55.000Z</time>
      </trkpt>
      <trkpt lat="46.35852" lon="5.8952">
        <ele>496.6</ele>
        <time>2019-05-23T06:52:15.000Z</time>
      </trkpt>
      <trkpt lat="46.3587" lon="5.89505">
        <ele>482.99</ele>
        <time>2019-05-23T06:53:01.000Z</time>
      </trkpt>
      <trkpt lat="46.35883" lon="5.89486">
        <ele>489.99</ele>
        <time>2019-05-23T06:53:09.000Z</time>
      </trkpt>
      <trkpt lat="46.35889" lon="5.89459">
        <ele>494.51</ele>
        <time>2019-05-23T06:53:24.000Z</time>
      </trkpt>
      <trkpt lat="46.35886" lon="5.89433">
        <ele>495.11</ele>
        <time>2019-05-23T06:53:40.000Z</time>
      </trkpt>
      <trkpt lat="46.35891" lon="5.89405">
        <ele>504.68</ele>
        <time>2019-05-23T06:53:54.000Z</time>
      </trkpt>
      <trkpt lat="46.35894" lon="5.8938">
        <ele>503.88</ele>
        <time>2019-05-23T06:54:18.000Z</time>
      </trkpt>
      <trkpt lat="46.3591" lon="5.89365">
        <ele>502.15</ele>
        <time>2019-05-23T06:54:35.000Z</time>
      </trkpt>
      <trkpt lat="46.35928" lon="5.89366">
        <ele>500.62</ele>
        <time>2019-05-23T06:54:52.000Z</time>
      </trkpt>
      <trkpt lat="46.35945" lon="5.89353">
        <ele>484.04</ele>
        <time>2019-05-23T06:55:02.000Z</time>
      </trkpt>
      <trkpt lat="46.35961" lon="5.89339">
        <ele>483.08</ele>
        <time>2019-05-23T06:55:17.000Z</time>
      </trkpt>
      <trkpt lat="46.35972" lon="5.89318">
        <ele>482.44</ele>
        <time>2019-05-23T06:55:31.000Z</time>
      </trkpt>
      <trkpt lat="46.35982" lon="5.89295">
        <ele>483.12</ele>
        <time>2019-05-23T06:55:45.000Z</time>
      </trkpt>
      <trkpt lat="46.35995" lon="5.89277">
        <ele>490.3</ele>
        <time>2019-05-23T06:55:58.000Z</time>
      </trkpt>
      <trkpt lat="46.36006" lon="5.89256">
        <ele>488.62</ele>
        <time>2019-05-23T06:56:10.000Z</time>
      </trkpt>
      <trkpt lat="46.36015" lon="5.89233">
        <ele>488.51</ele>
        <time>2019-05-23T06:56:21.000Z</time>
      </trkpt>
      <trkpt lat="46.36028" lon="5.89213">
        <ele>491.58</ele>
        <time>2019-05-23T06:56:35.000Z</time>
      </trkpt>
      <trkpt lat="46.36039" lon="5.8919">
        <ele>492.58</ele>
        <time>2019-05-23T06:56:47.000Z</time>
      </trkpt>
      <trkpt lat="46.36046" lon="5.89164">
        <ele>489.8</ele>
        <time>2019-05-23T06:57:00.000Z</time>
      </trkpt>
      <trkpt lat="46.36054" lon="5.8914">
        <ele>494.19</ele>
        <time>2019-05-23T06:57:14.000Z</time>
      </trkpt>
      <trkpt lat="46.36052" lon="5.89114">
        <ele>487.35</ele>
        <time>2019-05-23T06:57:26.000Z</time>
      </trkpt>
      <trkpt lat="46.36061" lon="5.89089">
        <ele>490.41</ele>
        <time>2019-05-23T06:57:37.000Z</time>
      </trkpt>
      <trkpt lat="46.36058" lon="5.89062">
        <ele>495.6</ele>
        <time>2019-05-23T06:57:50.000Z</time>
      </trkpt>
      <trkpt lat="46.36053" lon="5.89036">
        <ele>490.61</ele>
        <time>2019-05-23T06:58:01.000Z</time>
      </trkpt>
      <trkpt lat="46.36048" lon="5.89011">
        <ele>493.71</ele>
        <time>2019-05-23T06:58:13.000Z</time>
      </trkpt>
      <trkpt lat="46.36052" lon="5.88985">
        <ele>494.48</ele>
        <time>2019-05-23T06:58:30.000Z</time>
      </trkpt>
      <trkpt lat="46.36062" lon="5.88963">
        <ele>496.12</ele>
        <time>2019-05-23T06:58:46.000Z</time>
      </trkpt>
      <trkpt lat="46.36075" lon="5.88944">
        <ele>500.69</ele>
        <time>2019-05-23T06:59:00.000Z</time>
      </trkpt>
      <trkpt lat="46.36086" lon="5.8892">
        <ele>494.78</ele>
        <time>2019-05-23T06:59:15.000Z</time>
      </trkpt>
      <trkpt lat="46.36088" lon="5.88893">
        <ele>495.01</ele>
        <time>2019-05-23T06:59:29.000Z</time>
      </trkpt>
      <trkpt lat="46.36091" lon="5.88868">
        <ele>493.76</ele>
        <time>2019-05-23T06:59:40.000Z</time>
      </trkpt>
      <trkpt lat="46.36094" lon="5.88842">
        <ele>503.01</ele>
        <time>2019-05-23T06:59:53.000Z</time>
      </trkpt>
      <trkpt lat="46.36088" lon="5.88816">
        <ele>501.62</ele>
        <time>2019-05-23T07:00:04.000Z</time>
      </trkpt>
      <trkpt lat="46.36102" lon="5.88799">
        <ele>495.85</ele>
        <time>2019-05-23T07:00:16.000Z</time>
      </trkpt>
      <trkpt lat="46.36114" lon="5.88776">
        <ele>494.99</ele>
        <time>2019-05-23T07:00:30.000Z</time>
      </trkpt>
      <trkpt lat="46.36122" lon="5.88753">
        <ele>486.54</ele>
        <time>2019-05-23T07:00:45.000Z</time>
      </trkpt>
      <trkpt lat="46.36133" lon="5.88731">
        <ele>484.46</ele>
        <time>2019-05-23T07:00:59.000Z</time>
      </trkpt>
      <trkpt lat="46.36137" lon="5.88703">
        <ele>477.65</ele>
        <time>2019-05-23T07:01:14.000Z</time>
      </trkpt>
      <trkpt lat="46.36144" lon="5.88679">
        <ele>473.74</ele>
        <time>2019-05-23T07:01:25.000Z</time>
      </trkpt>
      <trkpt lat="46.36153" lon="5.88656">
        <ele>476.48</ele>
        <time>2019-05-23T07:01:38.000Z</time>
      </trkpt>
      <trkpt lat="46.36166" lon="5.88635">
        <ele>470.73</ele>
        <time>2019-05-23T07:01:50.000Z</time>
      </trkpt>
      <trkpt lat="46.36175" lon="5.8861">
        <ele>469.62</ele>
        <time>2019-05-23T07:02:04.000Z</time>
      </trkpt>
      <trkpt lat="46.36183" lon="5.88585">
        <ele>469.41</ele>
        <time>2019-05-23T07:02:18.000Z</time>
      </trkpt>
      <trkpt lat="46.36195" lon="5.88566">
        <ele>468.97</ele>
        <time>2019-05-23T07:02:29.000Z</time>
      </trkpt>
      <trkpt lat="46.36199" lon="5.8854">
        <ele>467.15</ele>
        <time>2019-05-23T07:02:41.000Z</time>
      </trkpt>
      <trkpt lat="46.36209" lon="5.88516">
        <ele>465.5</ele>
        <time>2019-05-23T07:02:54.000Z</time>
      </trkpt>
      <trkpt lat="46.36211" lon="5.88489">
        <ele>461.02</ele>
        <time>2019-05-23T07:03:06.000Z</time>
      </trkpt>
      <trkpt lat="46.362" lon="5.88468">
        <ele>460.42</ele>
        <time>2019-05-23T07:03:17.000Z</time>
      </trkpt>
      <trkpt lat="46.362" lon="5.88439">
        <ele>462.87</ele>
        <time>2019-05-23T07:03:29.000Z</time>
      </trkpt>
      <trkpt lat="46.36204" lon="5.88414">
        <ele>471.39</ele>
        <time>2019-05-23T07:03:44.000Z</time>
      </trkpt>
      <trkpt lat="46.36208" lon="5.88386">
        <ele>462.17</ele>
        <time>2019-05-23T07:03:57.000Z</time>
      </trkpt>
      <trkpt lat="46.36221" lon="5.88367">
        <ele>468.49</ele>
        <time>2019-05-23T07:04:09.000Z</time>
      </trkpt>
      <trkpt lat="46.36226" lon="5.88341">
        <ele>459.82</ele>
        <time>2019-05-23T07:04:23.000Z</time>
      </trkpt>
      <trkpt lat="46.36234" lon="5.88317">
        <ele>460.68</ele>
        <time>2019-05-23T07:04:37.000Z</time>
      </trkpt>
      <trkpt lat="46.36242" lon="5.88293">
        <ele>458.65</ele>
        <time>2019-05-23T07:04:50.000Z</time>
      </trkpt>
      <trkpt lat="46.36247" lon="5.88266">
        <ele>453.71</ele>
        <time>2019-05-23T07:05:04.000Z</time>
      </trkpt>
      <trkpt lat="46.3626" lon="5.88246">
        <ele>458.11</ele>
        <time>2019-05-23T07:05:16.000Z</time>
      </trkpt>
      <trkpt lat="46.36269" lon="5.88222">
        <ele>456.72</ele>
        <time>2019-05-23T07:05:29.000Z</time>
      </trkpt>
      <trkpt lat="46.36277" lon="5.88199">
        <ele>457.98</ele>
        <time>2019-05-23T07:05:43.000Z</time>
      </trkpt>
      <trkpt lat="46.3629" lon="5.88179">
        <ele>451.16</ele>
        <time>2019-05-23T07:05:56.000Z</time>
      </trkpt>
      <trkpt lat="46.36304" lon="5.88159">
        <ele>449.39</ele>
        <time>2019-05-23T07:06:10.000Z</time>
      </trkpt>
      <trkpt lat="46.36315" lon="5.88137">
        <ele>453.76</ele>
        <time>2019-05-23T07:06:22.000Z</time>
      </trkpt>
      <trkpt lat="46.36324" lon="5.88114">
        <ele>455.4</ele>
        <time>2019-05-23T07:06:35.000Z</time>
      </trkpt>
      <trkpt lat="46.36332" lon="5.88089">
        <ele>456.05</ele>
        <time>2019-05-23T07:06:45.000Z</time>
      </trkpt>
      <trkpt lat="46.36342" lon="5.88066">
        <ele>452.74</ele>
        <time>2019-05-23T07:07:02.000Z</time>
      </trkpt>
      <trkpt lat="46.36348" lon="5.88041">
        <ele>454.42</ele>
        <time>2019-05-23T07:07:15.000Z</time>
      </trkpt>
      <trkpt lat="46.36362" lon="5.88022">
        <ele>454.41</ele>
        <time>2019-05-23T07:07:31.000Z</time>
      </trkpt>
      <trkpt lat="46.36376" lon="5.88004">
        <ele>452.43</ele>
        <time>2019-05-23T07:07:44.000Z</time>
      </trkpt>
      <trkpt lat="46.36392" lon="5.87991">
        <ele>458.12</ele>
        <time>2019-05-23T07:07:56.000Z</time>
      </trkpt>
      <trkpt lat="46.36408" lon="5.87978">
        <ele>456.78</ele>
        <time>2019-05-23T07:08:08.000Z</time>
      </trkpt>
      <trkpt lat="46.36423" lon="5.8796">
        <ele>450</ele>
        <time>2019-05-23T07:08:21.000Z</time>
      </trkpt>
      <trkpt lat="46.36424" lon="5.87934">
        <ele>449.62</ele>
        <time>2019-05-23T07:08:31.000Z</time>
      </trkpt>
      <trkpt lat="46.36426" lon="5.87908">
        <ele>455.51</ele>
        <time>2019-05-23T07:09:12.000Z</time>
      </trkpt>
      <trkpt lat="46.36408" lon="5.87904">
        <ele>462.41</ele>
        <time>2019-05-23T07:11:43.000Z</time>
      </trkpt>
      <trkpt lat="46.3639" lon="5.87908">
        <ele>463.58</ele>
        <time>2019-05-23T07:12:07.000Z</time>
      </trkpt>
      <trkpt lat="46.36372" lon="5.87914">
        <ele>468.26</ele>
        <time>2019-05-23T07:12:37.000Z</time>
      </trkpt>
      <trkpt lat="46.36364" lon="5.8789">
        <ele>473.19</ele>
        <time>2019-05-23T07:14:07.000Z</time>
      </trkpt>
      <trkpt lat="46.36348" lon="5.87875">
        <ele>483.39</ele>
        <time>2019-05-23T07:14:22.000Z</time>
      </trkpt>
      <trkpt lat="46.36335" lon="5.87855">
        <ele>482.4</ele>
        <time>2019-05-23T07:14:46.000Z</time>
      </trkpt>
      <trkpt lat="46.36323" lon="5.87877">
        <ele>495.79</ele>
        <time>2019-05-23T07:15:22.000Z</time>
      </trkpt>
      <trkpt lat="46.36307" lon="5.87889">
        <ele>510.66</ele>
        <time>2019-05-23T07:16:03.000Z</time>
      </trkpt>
      <trkpt lat="46.3629" lon="5.87901">
        <ele>514.11</ele>
        <time>2019-05-23T07:16:32.000Z</time>
      </trkpt>
      <trkpt lat="46.36277" lon="5.8792">
        <ele>515.15</ele>
        <time>2019-05-23T07:16:48.000Z</time>
      </trkpt>
      <trkpt lat="46.36267" lon="5.87943">
        <ele>521.32</ele>
        <time>2019-05-23T07:17:19.000Z</time>
      </trkpt>
      <trkpt lat="46.36251" lon="5.87953">
        <ele>528.42</ele>
        <time>2019-05-23T07:17:51.000Z</time>
      </trkpt>
      <trkpt lat="46.36232" lon="5.87962">
        <ele>533.57</ele>
        <time>2019-05-23T07:18:32.000Z</time>
      </trkpt>
      <trkpt lat="46.36214" lon="5.8797">
        <ele>541.4</ele>
        <time>2019-05-23T07:19:24.000Z</time>
      </trkpt>
      <trkpt lat="46.36196" lon="5.87972">
        <ele>547.63</ele>
        <time>2019-05-23T07:19:47.000Z</time>
      </trkpt>
      <trkpt lat="46.36187" lon="5.87995">
        <ele>557.32</ele>
        <time>2019-05-23T07:21:27.000Z</time>
      </trkpt>
      <trkpt lat="46.36186" lon="5.88023">
        <ele>569.2</ele>
        <time>2019-05-23T07:21:55.000Z</time>
      </trkpt>
      <trkpt lat="46.36174" lon="5.88044">
        <ele>574.32</ele>
        <time>2019-05-23T07:22:26.000Z</time>
      </trkpt>
      <trkpt lat="46.36157" lon="5.88049">
        <ele>582.19</ele>
        <time>2019-05-23T07:22:46.000Z</time>
      </trkpt>
      <trkpt lat="46.36145" lon="5.88069">
        <ele>582.74</ele>
        <time>2019-05-23T07:23:04.000Z</time>
      </trkpt>
      <trkpt lat="46.36129" lon="5.88084">
        <ele>582.5</ele>
        <time>2019-05-23T07:23:23.000Z</time>
      </trkpt>
      <trkpt lat="46.36116" lon="5.88102">
        <ele>587.92</ele>
        <time>2019-05-23T07:23:44.000Z</time>
      </trkpt>
      <trkpt lat="46.36101" lon="5.88117">
        <ele>595.37</ele>
        <time>2019-05-23T07:24:08.000Z</time>
      </trkpt>
      <trkpt lat="46.36085" lon="5.88131">
        <ele>598.03</ele>
        <time>2019-05-23T07:24:30.000Z</time>
      </trkpt>
      <trkpt lat="46.36067" lon="5.88139">
        <ele>611.9</ele>
        <time>2019-05-23T07:24:58.000Z</time>
      </trkpt>
      <trkpt lat="46.3605" lon="5.8815">
        <ele>621.74</ele>
        <time>2019-05-23T07:25:27.000Z</time>
      </trkpt>
      <trkpt lat="46.36032" lon="5.8815">
        <ele>626.66</ele>
        <time>2019-05-23T07:25:54.000Z</time>
      </trkpt>
      <trkpt lat="46.36018" lon="5.88168">
        <ele>629.76</ele>
        <time>2019-05-23T07:26:23.000Z</time>
      </trkpt>
      <trkpt lat="46.36002" lon="5.88182">
        <ele>619.83</ele>
        <time>2019-05-23T07:26:46.000Z</time>
      </trkpt>
      <trkpt lat="46.35984" lon="5.88185">
        <ele>639.04</ele>
        <time>2019-05-23T07:27:17.000Z</time>
      </trkpt>
      <trkpt lat="46.35967" lon="5.88195">
        <ele>642.52</ele>
        <time>2019-05-23T07:28:18.000Z</time>
      </trkpt>
      <trkpt lat="46.35948" lon="5.88194">
        <ele>652.36</ele>
        <time>2019-05-23T07:28:48.000Z</time>
      </trkpt>
      <trkpt lat="46.35931" lon="5.882">
        <ele>659.95</ele>
        <time>2019-05-23T07:29:17.000Z</time>
      </trkpt>
      <trkpt lat="46.35912" lon="5.88202">
        <ele>669.94</ele>
        <time>2019-05-23T07:29:41.000Z</time>
      </trkpt>
      <trkpt lat="46.35894" lon="5.88192">
        <ele>678.64</ele>
        <time>2019-05-23T07:30:03.000Z</time>
      </trkpt>
      <trkpt lat="46.35875" lon="5.88186">
        <ele>682.38</ele>
        <time>2019-05-23T07:30:13.000Z</time>
      </trkpt>
      <trkpt lat="46.35857" lon="5.88183">
        <ele>683.15</ele>
        <time>2019-05-23T07:30:32.000Z</time>
      </trkpt>
      <trkpt lat="46.35838" lon="5.88191">
        <ele>685.3</ele>
        <time>2019-05-23T07:30:59.000Z</time>
      </trkpt>
      <trkpt lat="46.35822" lon="5.88206">
        <ele>685.15</ele>
        <time>2019-05-23T07:31:25.000Z</time>
      </trkpt>
      <trkpt lat="46.35804" lon="5.8821">
        <ele>697.08</ele>
        <time>2019-05-23T07:31:52.000Z</time>
      </trkpt>
      <trkpt lat="46.35787" lon="5.8822">
        <ele>695.8</ele>
        <time>2019-05-23T07:32:19.000Z</time>
      </trkpt>
      <trkpt lat="46.35769" lon="5.88227">
        <ele>705.31</ele>
        <time>2019-05-23T07:32:44.000Z</time>
      </trkpt>
      <trkpt lat="46.35752" lon="5.88237">
        <ele>703.26</ele>
        <time>2019-05-23T07:33:22.000Z</time>
      </trkpt>
      <trkpt lat="46.35734" lon="5.88244">
        <ele>722.96</ele>
        <time>2019-05-23T07:33:58.000Z</time>
      </trkpt>
      <trkpt lat="46.35715" lon="5.88249">
        <ele>727</ele>
        <time>2019-05-23T07:34:17.000Z</time>
      </trkpt>
      <trkpt lat="46.35723" lon="5.88275">
        <ele>737.36</ele>
        <time>2019-05-23T07:34:48.000Z</time>
      </trkpt>
      <trkpt lat="46.35734" lon="5.88297">
        <ele>741.8</ele>
        <time>2019-05-23T07:35:40.000Z</time>
      </trkpt>
      <trkpt lat="46.35749" lon="5.88313">
        <ele>740.43</ele>
        <time>2019-05-23T07:35:58.000Z</time>
      </trkpt>
      <trkpt lat="46.35762" lon="5.88333">
        <ele>743.57</ele>
        <time>2019-05-23T07:36:18.000Z</time>
      </trkpt>
      <trkpt lat="46.35775" lon="5.88352">
        <ele>751.28</ele>
        <time>2019-05-23T07:36:46.000Z</time>
      </trkpt>
      <trkpt lat="46.35779" lon="5.88379">
        <ele>758.87</ele>
        <time>2019-05-23T07:37:13.000Z</time>
      </trkpt>
      <trkpt lat="46.35787" lon="5.88403">
        <ele>766.89</ele>
        <time>2019-05-23T07:37:39.000Z</time>
      </trkpt>
      <trkpt lat="46.35787" lon="5.88429">
        <ele>762.33</ele>
        <time>2019-05-23T07:38:29.000Z</time>
      </trkpt>
      <trkpt lat="46.35776" lon="5.88449">
        <ele>768.83</ele>
        <time>2019-05-23T07:40:28.000Z</time>
      </trkpt>
      <trkpt lat="46.35758" lon="5.88458">
        <ele>784.71</ele>
        <time>2019-05-23T07:41:36.000Z</time>
      </trkpt>
      <trkpt lat="46.35768" lon="5.88481">
        <ele>792.34</ele>
        <time>2019-05-23T07:41:57.000Z</time>
      </trkpt>
      <trkpt lat="46.35778" lon="5.88505">
        <ele>791.09</ele>
        <time>2019-05-23T07:42:21.000Z</time>
      </trkpt>
      <trkpt lat="46.3577" lon="5.8853">
        <ele>798.7</ele>
        <time>2019-05-23T07:43:04.000Z</time>
      </trkpt>
      <trkpt lat="46.35764" lon="5.88555">
        <ele>811.55</ele>
        <time>2019-05-23T07:43:43.000Z</time>
      </trkpt>
      <trkpt lat="46.35746" lon="5.88561">
        <ele>818.19</ele>
        <time>2019-05-23T07:45:03.000Z</time>
      </trkpt>
      <trkpt lat="46.35742" lon="5.88586">
        <ele>831.9</ele>
        <time>2019-05-23T07:45:38.000Z</time>
      </trkpt>
      <trkpt lat="46.35725" lon="5.88573">
        <ele>842.35</ele>
        <time>2019-05-23T07:47:07.000Z</time>
      </trkpt>
      <trkpt lat="46.35707" lon="5.88575">
        <ele>848.35</ele>
        <time>2019-05-23T07:47:52.000Z</time>
      </trkpt>
      <trkpt lat="46.35688" lon="5.88576">
        <ele>864.26</ele>
        <time>2019-05-23T07:48:46.000Z</time>
      </trkpt>
      <trkpt lat="46.35671" lon="5.88569">
        <ele>865.1</ele>
        <time>2019-05-23T07:49:17.000Z</time>
      </trkpt>
      <trkpt lat="46.35652" lon="5.88569">
        <ele>876.19</ele>
        <time>2019-05-23T07:49:59.000Z</time>
      </trkpt>
      <trkpt lat="46.35636" lon="5.88555">
        <ele>885.11</ele>
        <time>2019-05-23T07:52:33.000Z</time>
      </trkpt>
      <trkpt lat="46.35618" lon="5.88547">
        <ele>885.35</ele>
        <time>2019-05-23T07:52:55.000Z</time>
      </trkpt>
      <trkpt lat="46.35599" lon="5.88542">
        <ele>893.36</ele>
        <time>2019-05-23T07:53:23.000Z</time>
      </trkpt>
      <trkpt lat="46.3558" lon="5.8854">
        <ele>900.64</ele>
        <time>2019-05-23T07:53:48.000Z</time>
      </trkpt>
      <trkpt lat="46.35562" lon="5.88536">
        <ele>910.8</ele>
        <time>2019-05-23T07:54:45.000Z</time>
      </trkpt>
      <trkpt lat="46.35543" lon="5.88542">
        <ele>909.29</ele>
        <time>2019-05-23T07:55:01.000Z</time>
      </trkpt>
      <trkpt lat="46.35525" lon="5.88535">
        <ele>914.55</ele>
        <time>2019-05-23T07:55:25.000Z</time>
      </trkpt>
      <trkpt lat="46.35517" lon="5.88559">
        <ele>935.22</ele>
        <time>2019-05-23T07:56:50.000Z</time>
      </trkpt>
      <trkpt lat="46.35499" lon="5.88562">
        <ele>946.82</ele>
        <time>2019-05-23T07:57:51.000Z</time>
      </trkpt>
      <trkpt lat="46.35481" lon="5.88566">
        <ele>948.43</ele>
        <time>2019-05-23T07:58:22.000Z</time>
      </trkpt>
      <trkpt lat="46.35464" lon="5.88575">
        <ele>951.43</ele>
        <time>2019-05-23T07:59:22.000Z</time>
      </trkpt>
      <trkpt lat="46.35478" lon="5.88591">
        <ele>963.05</ele>
        <time>2019-05-23T07:59:46.000Z</time>
      </trkpt>
      <trkpt lat="46.35494" lon="5.88606">
        <ele>959.65</ele>
        <time>2019-05-23T08:00:09.000Z</time>
      </trkpt>
      <trkpt lat="46.35509" lon="5.88624">
        <ele>970.8</ele>
        <time>2019-05-23T08:00:44.000Z</time>
      </trkpt>
      <trkpt lat="46.35524" lon="5.88639">
        <ele>976.97</ele>
        <time>2019-05-23T08:01:14.000Z</time>
      </trkpt>
      <trkpt lat="46.35514" lon="5.88661">
        <ele>982.78</ele>
        <time>2019-05-23T08:01:58.000Z</time>
      </trkpt>
      <trkpt lat="46.35496" lon="5.88653">
        <ele>995.41</ele>
        <time>2019-05-23T08:03:47.000Z</time>
      </trkpt>
      <trkpt lat="46.35479" lon="5.88661">
        <ele>998.11</ele>
        <time>2019-05-23T08:04:58.000Z</time>
      </trkpt>
      <trkpt lat="46.35461" lon="5.8866">
        <ele>1002.02</ele>
        <time>2019-05-23T08:05:25.000Z</time>
      </trkpt>
      <trkpt lat="46.35442" lon="5.88664">
        <ele>1015.38</ele>
        <time>2019-05-23T08:05:56.000Z</time>
      </trkpt>
      <trkpt lat="46.35426" lon="5.88651">
        <ele>1017.27</ele>
        <time>2019-05-23T08:06:36.000Z</time>
      </trkpt>
      <trkpt lat="46.35418" lon="5.88675">
        <ele>1023.11</ele>
        <time>2019-05-23T08:07:10.000Z</time>
      </trkpt>
      <trkpt lat="46.35407" lon="5.88697">
        <ele>1029.09</ele>
        <time>2019-05-23T08:07:36.000Z</time>
      </trkpt>
      <trkpt lat="46.35389" lon="5.88699">
        <ele>1034.43</ele>
        <time>2019-05-23T08:08:08.000Z</time>
      </trkpt>
      <trkpt lat="46.35373" lon="5.88712">
        <ele>1040.52</ele>
        <time>2019-05-23T08:08:28.000Z</time>
      </trkpt>
      <trkpt lat="46.35355" lon="5.88706">
        <ele>1041.21</ele>
        <time>2019-05-23T08:10:44.000Z</time>
      </trkpt>
      <trkpt lat="46.35338" lon="5.88718">
        <ele>1043.02</ele>
        <time>2019-05-23T08:11:10.000Z</time>
      </trkpt>
      <trkpt lat="46.35322" lon="5.8873">
        <ele>1050.03</ele>
        <time>2019-05-23T08:11:32.000Z</time>
      </trkpt>
      <trkpt lat="46.35307" lon="5.88745">
        <ele>1057.57</ele>
        <time>2019-05-23T08:11:55.000Z</time>
      </trkpt>
      <trkpt lat="46.35294" lon="5.88762">
        <ele>1057.81</ele>
        <time>2019-05-23T08:12:25.000Z</time>
      </trkpt>
      <trkpt lat="46.35276" lon="5.8877">
        <ele>1069.03</ele>
        <time>2019-05-23T08:13:02.000Z</time>
      </trkpt>
      <trkpt lat="46.35261" lon="5.88784">
        <ele>1069.68</ele>
        <time>2019-05-23T08:13:31.000Z</time>
      </trkpt>
      <trkpt lat="46.35243" lon="5.88792">
        <ele>1071.2</ele>
        <time>2019-05-23T08:13:58.000Z</time>
      </trkpt>
      <trkpt lat="46.35226" lon="5.88803">
        <ele>1078.32</ele>
        <time>2019-05-23T08:14:23.000Z</time>
      </trkpt>
      <trkpt lat="46.35211" lon="5.8882">
        <ele>1087.93</ele>
        <time>2019-05-23T08:14:44.000Z</time>
      </trkpt>
      <trkpt lat="46.35198" lon="5.88838">
        <ele>1081.81</ele>
        <time>2019-05-23T08:15:04.000Z</time>
      </trkpt>
      <trkpt lat="46.35184" lon="5.88856">
        <ele>1086.47</ele>
        <time>2019-05-23T08:15:25.000Z</time>
      </trkpt>
      <trkpt lat="46.35176" lon="5.8888">
        <ele>1083.83</ele>
        <time>2019-05-23T08:15:40.000Z</time>
      </trkpt>
      <trkpt lat="46.3516" lon="5.88896">
        <ele>1086.78</ele>
        <time>2019-05-23T08:15:57.000Z</time>
      </trkpt>
      <trkpt lat="46.3515" lon="5.88919">
        <ele>1089.32</ele>
        <time>2019-05-23T08:16:19.000Z</time>
      </trkpt>
      <trkpt lat="46.35139" lon="5.8894">
        <ele>1093.92</ele>
        <time>2019-05-23T08:27:08.000Z</time>
      </trkpt>
      <trkpt lat="46.35125" lon="5.88957">
        <ele>1095.31</ele>
        <time>2019-05-23T08:27:32.000Z</time>
      </trkpt>
      <trkpt lat="46.35112" lon="5.88976">
        <ele>1096.63</ele>
        <time>2019-05-23T08:27:52.000Z</time>
      </trkpt>
      <trkpt lat="46.35097" lon="5.88993">
        <ele>1104.73</ele>
        <time>2019-05-23T08:28:16.000Z</time>
      </trkpt>
      <trkpt lat="46.35098" lon="5.89019">
        <ele>1105.14</ele>
        <time>2019-05-23T08:28:37.000Z</time>
      </trkpt>
      <trkpt lat="46.35094" lon="5.89045">
        <ele>1109.52</ele>
        <time>2019-05-23T08:28:55.000Z</time>
      </trkpt>
      <trkpt lat="46.3509" lon="5.89071">
        <ele>1118.72</ele>
        <time>2019-05-23T08:29:18.000Z</time>
      </trkpt>
      <trkpt lat="46.35094" lon="5.89097">
        <ele>1128.03</ele>
        <time>2019-05-23T08:29:45.000Z</time>
      </trkpt>
      <trkpt lat="46.35103" lon="5.8912">
        <ele>1126.94</ele>
        <time>2019-05-23T08:30:13.000Z</time>
      </trkpt>
      <trkpt lat="46.35113" lon="5.89142">
        <ele>1136.45</ele>
        <time>2019-05-23T08:30:42.000Z</time>
      </trkpt>
      <trkpt lat="46.35124" lon="5.89163">
        <ele>1140.2</ele>
        <time>2019-05-23T08:31:27.000Z</time>
      </trkpt>
      <trkpt lat="46.35106" lon="5.89156">
        <ele>1139.42</ele>
        <time>2019-05-23T08:33:22.000Z</time>
      </trkpt>
      <trkpt lat="46.35089" lon="5.89145">
        <ele>1142.51</ele>
        <time>2019-05-23T08:34:15.000Z</time>
      </trkpt>
      <trkpt lat="46.35106" lon="5.89154">
        <ele>1141.54</ele>
        <time>2019-05-23T08:36:43.000Z</time>
      </trkpt>
      <trkpt lat="46.35089" lon="5.89144">
        <ele>1136.94</ele>
        <time>2019-05-23T08:38:00.000Z</time>
      </trkpt>
      <trkpt lat="46.35071" lon="5.89149">
        <ele>1132.48</ele>
        <time>2019-05-23T08:39:06.000Z</time>
      </trkpt>
      <trkpt lat="46.35063" lon="5.89176">
        <ele>1138.62</ele>
        <time>2019-05-23T08:39:21.000Z</time>
      </trkpt>
      <trkpt lat="46.35049" lon="5.89193">
        <ele>1139.89</ele>
        <time>2019-05-23T08:39:42.000Z</time>
      </trkpt>
      <trkpt lat="46.3503" lon="5.89196">
        <ele>1135.75</ele>
        <time>2019-05-23T08:39:59.000Z</time>
      </trkpt>
      <trkpt lat="46.35011" lon="5.89197">
        <ele>1138.94</ele>
        <time>2019-05-23T08:40:13.000Z</time>
      </trkpt>
      <trkpt lat="46.34993" lon="5.89194">
        <ele>1134.72</ele>
        <time>2019-05-23T08:41:07.000Z</time>
      </trkpt>
      <trkpt lat="46.34974" lon="5.89192">
        <ele>1132.57</ele>
        <time>2019-05-23T08:41:22.000Z</time>
      </trkpt>
      <trkpt lat="46.34955" lon="5.89192">
        <ele>1132.63</ele>
        <time>2019-05-23T08:41:38.000Z</time>
      </trkpt>
      <trkpt lat="46.34939" lon="5.89178">
        <ele>1132.42</ele>
        <time>2019-05-23T08:41:54.000Z</time>
      </trkpt>
      <trkpt lat="46.34921" lon="5.8918">
        <ele>1128.53</ele>
        <time>2019-05-23T08:42:07.000Z</time>
      </trkpt>
      <trkpt lat="46.34902" lon="5.89183">
        <ele>1123.39</ele>
        <time>2019-05-23T08:42:29.000Z</time>
      </trkpt>
      <trkpt lat="46.34889" lon="5.89201">
        <ele>1126.02</ele>
        <time>2019-05-23T08:42:38.000Z</time>
      </trkpt>
      <trkpt lat="46.34889" lon="5.89228">
        <ele>1122.44</ele>
        <time>2019-05-23T08:42:54.000Z</time>
      </trkpt>
      <trkpt lat="46.34888" lon="5.89254">
        <ele>1121.12</ele>
        <time>2019-05-23T08:43:14.000Z</time>
      </trkpt>
      <trkpt lat="46.34887" lon="5.89281">
        <ele>1122.68</ele>
        <time>2019-05-23T08:43:27.000Z</time>
      </trkpt>
      <trkpt lat="46.34887" lon="5.89309">
        <ele>1116.3</ele>
        <time>2019-05-23T08:43:42.000Z</time>
      </trkpt>
      <trkpt lat="46.34882" lon="5.89334">
        <ele>1108.27</ele>
        <time>2019-05-23T08:43:55.000Z</time>
      </trkpt>
      <trkpt lat="46.34871" lon="5.89355">
        <ele>1105.62</ele>
        <time>2019-05-23T08:44:20.000Z</time>
      </trkpt>
      <trkpt lat="46.34855" lon="5.89367">
        <ele>1099.23</ele>
        <time>2019-05-23T08:44:37.000Z</time>
      </trkpt>
      <trkpt lat="46.34839" lon="5.89379">
        <ele>1101.62</ele>
        <time>2019-05-23T08:44:51.000Z</time>
      </trkpt>
      <trkpt lat="46.3482" lon="5.89388">
        <ele>1097.94</ele>
        <time>2019-05-23T08:45:08.000Z</time>
      </trkpt>
      <trkpt lat="46.34803" lon="5.894">
        <ele>1102.88</ele>
        <time>2019-05-23T08:45:17.000Z</time>
      </trkpt>
      <trkpt lat="46.34785" lon="5.89409">
        <ele>1100.14</ele>
        <time>2019-05-23T08:46:00.000Z</time>
      </trkpt>
      <trkpt lat="46.34771" lon="5.89424">
        <ele>1097.15</ele>
        <time>2019-05-23T08:46:13.000Z</time>
      </trkpt>
      <trkpt lat="46.34758" lon="5.89444">
        <ele>1096.71</ele>
        <time>2019-05-23T08:46:30.000Z</time>
      </trkpt>
      <trkpt lat="46.34748" lon="5.89468">
        <ele>1102.69</ele>
        <time>2019-05-23T08:46:46.000Z</time>
      </trkpt>
      <trkpt lat="46.34734" lon="5.89486">
        <ele>1104.89</ele>
        <time>2019-05-23T08:47:00.000Z</time>
      </trkpt>
      <trkpt lat="46.34723" lon="5.89508">
        <ele>1101.32</ele>
        <time>2019-05-23T08:47:32.000Z</time>
      </trkpt>
      <trkpt lat="46.34708" lon="5.89525">
        <ele>1101.6</ele>
        <time>2019-05-23T08:47:50.000Z</time>
      </trkpt>
      <trkpt lat="46.34703" lon="5.8955">
        <ele>1102.34</ele>
        <time>2019-05-23T08:48:03.000Z</time>
      </trkpt>
      <trkpt lat="46.34711" lon="5.89575">
        <ele>1104.15</ele>
        <time>2019-05-23T08:48:19.000Z</time>
      </trkpt>
      <trkpt lat="46.34722" lon="5.89597">
        <ele>1102.36</ele>
        <time>2019-05-23T08:48:34.000Z</time>
      </trkpt>
      <trkpt lat="46.34731" lon="5.89619">
        <ele>1100.42</ele>
        <time>2019-05-23T08:48:50.000Z</time>
      </trkpt>
      <trkpt lat="46.34734" lon="5.89646">
        <ele>1101.11</ele>
        <time>2019-05-23T08:49:08.000Z</time>
      </trkpt>
      <trkpt lat="46.34742" lon="5.8967">
        <ele>1097.56</ele>
        <time>2019-05-23T08:49:23.000Z</time>
      </trkpt>
      <trkpt lat="46.34744" lon="5.89696">
        <ele>1100.71</ele>
        <time>2019-05-23T08:49:37.000Z</time>
      </trkpt>
      <trkpt lat="46.34738" lon="5.89723">
        <ele>1095.11</ele>
        <time>2019-05-23T08:50:15.000Z</time>
      </trkpt>
      <trkpt lat="46.34724" lon="5.8974">
        <ele>1086.73</ele>
        <time>2019-05-23T08:50:29.000Z</time>
      </trkpt>
      <trkpt lat="46.34711" lon="5.89758">
        <ele>1084.01</ele>
        <time>2019-05-23T08:50:45.000Z</time>
      </trkpt>
      <trkpt lat="46.34693" lon="5.89762">
        <ele>1082.4</ele>
        <time>2019-05-23T08:50:57.000Z</time>
      </trkpt>
      <trkpt lat="46.34675" lon="5.89764">
        <ele>1088.57</ele>
        <time>2019-05-23T08:51:10.000Z</time>
      </trkpt>
      <trkpt lat="46.34656" lon="5.89767">
        <ele>1089.45</ele>
        <time>2019-05-23T08:51:23.000Z</time>
      </trkpt>
      <trkpt lat="46.34639" lon="5.89757">
        <ele>1093.32</ele>
        <time>2019-05-23T08:51:38.000Z</time>
      </trkpt>
      <trkpt lat="46.34623" lon="5.89743">
        <ele>1100.14</ele>
        <time>2019-05-23T08:51:52.000Z</time>
      </trkpt>
      <trkpt lat="46.34607" lon="5.89728">
        <ele>1103.4</ele>
        <time>2019-05-23T08:52:05.000Z</time>
      </trkpt>
      <trkpt lat="46.34592" lon="5.89712">
        <ele>1103.39</ele>
        <time>2019-05-23T08:52:17.000Z</time>
      </trkpt>
      <trkpt lat="46.34573" lon="5.89717">
        <ele>1092.42</ele>
        <time>2019-05-23T08:52:26.000Z</time>
      </trkpt>
      <trkpt lat="46.34558" lon="5.89704">
        <ele>1092.56</ele>
        <time>2019-05-23T08:52:44.000Z</time>
      </trkpt>
      <trkpt lat="46.3454" lon="5.89696">
        <ele>1091.96</ele>
        <time>2019-05-23T08:52:57.000Z</time>
      </trkpt>
      <trkpt lat="46.34523" lon="5.89686">
        <ele>1087.9</ele>
        <time>2019-05-23T08:53:09.000Z</time>
      </trkpt>
      <trkpt lat="46.34505" lon="5.89685">
        <ele>1087.42</ele>
        <time>2019-05-23T08:53:25.000Z</time>
      </trkpt>
      <trkpt lat="46.34488" lon="5.89694">
        <ele>1090.62</ele>
        <time>2019-05-23T08:53:44.000Z</time>
      </trkpt>
      <trkpt lat="46.34469" lon="5.89689">
        <ele>1101.37</ele>
        <time>2019-05-23T08:54:14.000Z</time>
      </trkpt>
      <trkpt lat="46.3445" lon="5.89693">
        <ele>1099.74</ele>
        <time>2019-05-23T08:54:34.000Z</time>
      </trkpt>
      <trkpt lat="46.34433" lon="5.89701">
        <ele>1108.44</ele>
        <time>2019-05-23T08:54:59.000Z</time>
      </trkpt>
      <trkpt lat="46.34417" lon="5.89687">
        <ele>1118.29</ele>
        <time>2019-05-23T08:55:21.000Z</time>
      </trkpt>
      <trkpt lat="46.34399" lon="5.89697">
        <ele>1117</ele>
        <time>2019-05-23T08:55:48.000Z</time>
      </trkpt>
      <trkpt lat="46.34381" lon="5.89694">
        <ele>1127.17</ele>
        <time>2019-05-23T08:56:13.000Z</time>
      </trkpt>
      <trkpt lat="46.34365" lon="5.89682">
        <ele>1135.46</ele>
        <time>2019-05-23T08:56:31.000Z</time>
      </trkpt>
      <trkpt lat="46.34347" lon="5.89677">
        <ele>1139.63</ele>
        <time>2019-05-23T08:56:50.000Z</time>
      </trkpt>
      <trkpt lat="46.34329" lon="5.89681">
        <ele>1138.09</ele>
        <time>2019-05-23T08:57:11.000Z</time>
      </trkpt>
      <trkpt lat="46.34314" lon="5.89695">
        <ele>1141.38</ele>
        <time>2019-05-23T08:57:27.000Z</time>
      </trkpt>
      <trkpt lat="46.343" lon="5.89712">
        <ele>1146.25</ele>
        <time>2019-05-23T08:57:55.000Z</time>
      </trkpt>
      <trkpt lat="46.34282" lon="5.89714">
        <ele>1148.29</ele>
        <time>2019-05-23T08:58:19.000Z</time>
      </trkpt>
      <trkpt lat="46.34268" lon="5.89731">
        <ele>1151.1</ele>
        <time>2019-05-23T08:58:37.000Z</time>
      </trkpt>
      <trkpt lat="46.34256" lon="5.89752">
        <ele>1145.47</ele>
        <time>2019-05-23T08:58:54.000Z</time>
      </trkpt>
      <trkpt lat="46.34245" lon="5.89774">
        <ele>1145.06</ele>
        <time>2019-05-23T08:59:19.000Z</time>
      </trkpt>
      <trkpt lat="46.34245" lon="5.89801">
        <ele>1144.54</ele>
        <time>2019-05-23T08:59:38.000Z</time>
      </trkpt>
      <trkpt lat="46.34247" lon="5.89829">
        <ele>1148.72</ele>
        <time>2019-05-23T08:59:59.000Z</time>
      </trkpt>
      <trkpt lat="46.34255" lon="5.89853">
        <ele>1149.81</ele>
        <time>2019-05-23T09:00:41.000Z</time>
      </trkpt>
      <trkpt lat="46.34259" lon="5.89879">
        <ele>1148.45</ele>
        <time>2019-05-23T09:00:55.000Z</time>
      </trkpt>
      <trkpt lat="46.34261" lon="5.89906">
        <ele>1151.37</ele>
        <time>2019-05-23T09:01:13.000Z</time>
      </trkpt>
      <trkpt lat="46.34266" lon="5.89933">
        <ele>1138.21</ele>
        <time>2019-05-23T09:01:30.000Z</time>
      </trkpt>
      <trkpt lat="46.34267" lon="5.8996">
        <ele>1149.51</ele>
        <time>2019-05-23T09:02:32.000Z</time>
      </trkpt>
      <trkpt lat="46.34282" lon="5.89977">
        <ele>1149.09</ele>
        <time>2019-05-23T09:02:48.000Z</time>
      </trkpt>
      <trkpt lat="46.34298" lon="5.8999">
        <ele>1150.92</ele>
        <time>2019-05-23T09:03:02.000Z</time>
      </trkpt>
      <trkpt lat="46.34317" lon="5.89996">
        <ele>1154.43</ele>
        <time>2019-05-23T09:03:27.000Z</time>
      </trkpt>
      <trkpt lat="46.34333" lon="5.90008">
        <ele>1160.06</ele>
        <time>2019-05-23T09:03:45.000Z</time>
      </trkpt>
      <trkpt lat="46.34345" lon="5.90027">
        <ele>1161.7</ele>
        <time>2019-05-23T09:04:06.000Z</time>
      </trkpt>
      <trkpt lat="46.3435" lon="5.90054">
        <ele>1160.44</ele>
        <time>2019-05-23T09:04:22.000Z</time>
      </trkpt>
      <trkpt lat="46.34354" lon="5.90081">
        <ele>1164.53</ele>
        <time>2019-05-23T09:04:37.000Z</time>
      </trkpt>
      <trkpt lat="46.3436" lon="5.90106">
        <ele>1163.33</ele>
        <time>2019-05-23T09:04:50.000Z</time>
      </trkpt>
      <trkpt lat="46.34368" lon="5.90131">
        <ele>1163.72</ele>
        <time>2019-05-23T09:05:05.000Z</time>
      </trkpt>
      <trkpt lat="46.34376" lon="5.90156">
        <ele>1164.59</ele>
        <time>2019-05-23T09:05:18.000Z</time>
      </trkpt>
      <trkpt lat="46.34381" lon="5.90183">
        <ele>1165.41</ele>
        <time>2019-05-23T09:05:34.000Z</time>
      </trkpt>
      <trkpt lat="46.34381" lon="5.90209">
        <ele>1167.2</ele>
        <time>2019-05-23T09:05:47.000Z</time>
      </trkpt>
      <trkpt lat="46.34379" lon="5.90235">
        <ele>1168.13</ele>
        <time>2019-05-23T09:06:04.000Z</time>
      </trkpt>
      <trkpt lat="46.34378" lon="5.90262">
        <ele>1167.45</ele>
        <time>2019-05-23T09:06:19.000Z</time>
      </trkpt>
      <trkpt lat="46.34389" lon="5.90284">
        <ele>1170.83</ele>
        <time>2019-05-23T09:06:32.000Z</time>
      </trkpt>
      <trkpt lat="46.34405" lon="5.90298">
        <ele>1173.05</ele>
        <time>2019-05-23T09:06:46.000Z</time>
      </trkpt>
      <trkpt lat="46.34418" lon="5.90317">
        <ele>1168.36</ele>
        <time>2019-05-23T09:07:03.000Z</time>
      </trkpt>
      <trkpt lat="46.34436" lon="5.90322">
        <ele>1168.56</ele>
        <time>2019-05-23T09:07:16.000Z</time>
      </trkpt>
      <trkpt lat="46.34454" lon="5.90333">
        <ele>1172.39</ele>
        <time>2019-05-23T09:07:30.000Z</time>
      </trkpt>
      <trkpt lat="46.34465" lon="5.90354">
        <ele>1173.55</ele>
        <time>2019-05-23T09:07:43.000Z</time>
      </trkpt>
      <trkpt lat="46.34475" lon="5.90377">
        <ele>1179.69</ele>
        <time>2019-05-23T09:08:01.000Z</time>
      </trkpt>
      <trkpt lat="46.34485" lon="5.90398">
        <ele>1174.5</ele>
        <time>2019-05-23T09:08:13.000Z</time>
      </trkpt>
      <trkpt lat="46.34499" lon="5.90415">
        <ele>1177.66</ele>
        <time>2019-05-23T09:08:29.000Z</time>
      </trkpt>
      <trkpt lat="46.34515" lon="5.90432">
        <ele>1179.11</ele>
        <time>2019-05-23T09:08:45.000Z</time>
      </trkpt>
      <trkpt lat="46.3453" lon="5.90446">
        <ele>1175.56</ele>
        <time>2019-05-23T09:08:59.000Z</time>
      </trkpt>
      <trkpt lat="46.34548" lon="5.90454">
        <ele>1177.42</ele>
        <time>2019-05-23T09:09:16.000Z</time>
      </trkpt>
      <trkpt lat="46.34566" lon="5.90456">
        <ele>1179.68</ele>
        <time>2019-05-23T09:09:39.000Z</time>
      </trkpt>
      <trkpt lat="46.34584" lon="5.90452">
        <ele>1176.21</ele>
        <time>2019-05-23T09:09:51.000Z</time>
      </trkpt>
      <trkpt lat="46.34601" lon="5.90446">
        <ele>1176.41</ele>
        <time>2019-05-23T09:10:05.000Z</time>
      </trkpt>
      <trkpt lat="46.34613" lon="5.90426">
        <ele>1173.13</ele>
        <time>2019-05-23T09:10:15.000Z</time>
      </trkpt>
      <trkpt lat="46.34623" lon="5.90403">
        <ele>1170.66</ele>
        <time>2019-05-23T09:10:29.000Z</time>
      </trkpt>
      <trkpt lat="46.34634" lon="5.90381">
        <ele>1166.06</ele>
        <time>2019-05-23T09:10:44.000Z</time>
      </trkpt>
      <trkpt lat="46.34641" lon="5.90356">
        <ele>1165.97</ele>
        <time>2019-05-23T09:10:59.000Z</time>
      </trkpt>
      <trkpt lat="46.34656" lon="5.90337">
        <ele>1170.27</ele>
        <time>2019-05-23T09:11:16.000Z</time>
      </trkpt>
      <trkpt lat="46.34661" lon="5.90312">
        <ele>1169.34</ele>
        <time>2019-05-23T09:11:55.000Z</time>
      </trkpt>
      <trkpt lat="46.34676" lon="5.90295">
        <ele>1171.05</ele>
        <time>2019-05-23T09:12:13.000Z</time>
      </trkpt>
      <trkpt lat="46.34693" lon="5.90285">
        <ele>1174.26</ele>
        <time>2019-05-23T09:12:29.000Z</time>
      </trkpt>
      <trkpt lat="46.34711" lon="5.90292">
        <ele>1169.21</ele>
        <time>2019-05-23T09:12:44.000Z</time>
      </trkpt>
      <trkpt lat="46.34728" lon="5.90302">
        <ele>1169.93</ele>
        <time>2019-05-23T09:12:57.000Z</time>
      </trkpt>
      <trkpt lat="46.34746" lon="5.90301">
        <ele>1176.07</ele>
        <time>2019-05-23T09:13:10.000Z</time>
      </trkpt>
      <trkpt lat="46.34763" lon="5.90314">
        <ele>1171.84</ele>
        <time>2019-05-23T09:13:28.000Z</time>
      </trkpt>
      <trkpt lat="46.34778" lon="5.90332">
        <ele>1170.1</ele>
        <time>2019-05-23T09:13:43.000Z</time>
      </trkpt>
      <trkpt lat="46.34791" lon="5.90353">
        <ele>1166.02</ele>
        <time>2019-05-23T09:14:01.000Z</time>
      </trkpt>
      <trkpt lat="46.34802" lon="5.90373">
        <ele>1168.41</ele>
        <time>2019-05-23T09:14:16.000Z</time>
      </trkpt>
      <trkpt lat="46.34816" lon="5.90392">
        <ele>1171.07</ele>
        <time>2019-05-23T09:14:31.000Z</time>
      </trkpt>
      <trkpt lat="46.34824" lon="5.90415">
        <ele>1169.06</ele>
        <time>2019-05-23T09:14:50.000Z</time>
      </trkpt>
      <trkpt lat="46.34823" lon="5.90442">
        <ele>1171.13</ele>
        <time>2019-05-23T09:15:05.000Z</time>
      </trkpt>
      <trkpt lat="46.34826" lon="5.9047">
        <ele>1170.93</ele>
        <time>2019-05-23T09:15:22.000Z</time>
      </trkpt>
      <trkpt lat="46.34829" lon="5.90497">
        <ele>1176.39</ele>
        <time>2019-05-23T09:15:37.000Z</time>
      </trkpt>
      <trkpt lat="46.34838" lon="5.9052">
        <ele>1179.4</ele>
        <time>2019-05-23T09:15:54.000Z</time>
      </trkpt>
      <trkpt lat="46.34836" lon="5.90547">
        <ele>1180.43</ele>
        <time>2019-05-23T09:16:17.000Z</time>
      </trkpt>
      <trkpt lat="46.34825" lon="5.90569">
        <ele>1181.18</ele>
        <time>2019-05-23T09:16:36.000Z</time>
      </trkpt>
      <trkpt lat="46.3482" lon="5.90595">
        <ele>1184.71</ele>
        <time>2019-05-23T09:17:17.000Z</time>
      </trkpt>
      <trkpt lat="46.34806" lon="5.90613">
        <ele>1181.51</ele>
        <time>2019-05-23T09:17:31.000Z</time>
      </trkpt>
      <trkpt lat="46.34797" lon="5.90636">
        <ele>1185.13</ele>
        <time>2019-05-23T09:17:46.000Z</time>
      </trkpt>
      <trkpt lat="46.34787" lon="5.90659">
        <ele>1185.72</ele>
        <time>2019-05-23T09:18:03.000Z</time>
      </trkpt>
      <trkpt lat="46.34773" lon="5.90676">
        <ele>1187.08</ele>
        <time>2019-05-23T09:18:20.000Z</time>
      </trkpt>
      <trkpt lat="46.34759" lon="5.90694">
        <ele>1193.53</ele>
        <time>2019-05-23T09:18:37.000Z</time>
      </trkpt>
      <trkpt lat="46.3475" lon="5.90717">
        <ele>1192.71</ele>
        <time>2019-05-23T09:18:55.000Z</time>
      </trkpt>
      <trkpt lat="46.3474" lon="5.90741">
        <ele>1194.92</ele>
        <time>2019-05-23T09:19:07.000Z</time>
      </trkpt>
      <trkpt lat="46.34747" lon="5.90765">
        <ele>1188.51</ele>
        <time>2019-05-23T09:19:51.000Z</time>
      </trkpt>
      <trkpt lat="46.34732" lon="5.90782">
        <ele>1193.83</ele>
        <time>2019-05-23T09:20:09.000Z</time>
      </trkpt>
      <trkpt lat="46.34727" lon="5.90808">
        <ele>1198.16</ele>
        <time>2019-05-23T09:20:25.000Z</time>
      </trkpt>
      <trkpt lat="46.34733" lon="5.90834">
        <ele>1203.35</ele>
        <time>2019-05-23T09:20:41.000Z</time>
      </trkpt>
      <trkpt lat="46.3473" lon="5.90861">
        <ele>1206.59</ele>
        <time>2019-05-23T09:20:59.000Z</time>
      </trkpt>
      <trkpt lat="46.34736" lon="5.90887">
        <ele>1210.38</ele>
        <time>2019-05-23T09:21:08.000Z</time>
      </trkpt>
      <trkpt lat="46.34748" lon="5.90907">
        <ele>1209.48</ele>
        <time>2019-05-23T09:21:21.000Z</time>
      </trkpt>
      <trkpt lat="46.3476" lon="5.90927">
        <ele>1198.83</ele>
        <time>2019-05-23T09:21:38.000Z</time>
      </trkpt>
      <trkpt lat="46.34774" lon="5.90946">
        <ele>1207.63</ele>
        <time>2019-05-23T09:21:58.000Z</time>
      </trkpt>
      <trkpt lat="46.34786" lon="5.90966">
        <ele>1200.46</ele>
        <time>2019-05-23T09:22:17.000Z</time>
      </trkpt>
      <trkpt lat="46.34788" lon="5.90994">
        <ele>1201.3</ele>
        <time>2019-05-23T09:22:42.000Z</time>
      </trkpt>
      <trkpt lat="46.34785" lon="5.91022">
        <ele>1192.54</ele>
        <time>2019-05-23T09:22:59.000Z</time>
      </trkpt>
      <trkpt lat="46.34779" lon="5.91048">
        <ele>1190.09</ele>
        <time>2019-05-23T09:23:19.000Z</time>
      </trkpt>
      <trkpt lat="46.34776" lon="5.91075">
        <ele>1184.74</ele>
        <time>2019-05-23T09:23:33.000Z</time>
      </trkpt>
      <trkpt lat="46.34779" lon="5.91101">
        <ele>1177.82</ele>
        <time>2019-05-23T09:23:48.000Z</time>
      </trkpt>
      <trkpt lat="46.34785" lon="5.91126">
        <ele>1176.69</ele>
        <time>2019-05-23T09:24:02.000Z</time>
      </trkpt>
      <trkpt lat="46.34792" lon="5.91152">
        <ele>1181.64</ele>
        <time>2019-05-23T09:24:18.000Z</time>
      </trkpt>
      <trkpt lat="46.34807" lon="5.91169">
        <ele>1181.18</ele>
        <time>2019-05-23T09:24:31.000Z</time>
      </trkpt>
      <trkpt lat="46.34816" lon="5.91193">
        <ele>1177.1</ele>
        <time>2019-05-23T09:24:43.000Z</time>
      </trkpt>
      <trkpt lat="46.34821" lon="5.9122">
        <ele>1173.74</ele>
        <time>2019-05-23T09:24:58.000Z</time>
      </trkpt>
      <trkpt lat="46.34833" lon="5.91241">
        <ele>1175.95</ele>
        <time>2019-05-23T09:25:13.000Z</time>
      </trkpt>
      <trkpt lat="46.34833" lon="5.9127">
        <ele>1179.29</ele>
        <time>2019-05-23T09:25:29.000Z</time>
      </trkpt>
      <trkpt lat="46.3484" lon="5.91295">
        <ele>1184.12</ele>
        <time>2019-05-23T09:25:47.000Z</time>
      </trkpt>
      <trkpt lat="46.3485" lon="5.91317">
        <ele>1183.84</ele>
        <time>2019-05-23T09:26:03.000Z</time>
      </trkpt>
      <trkpt lat="46.34864" lon="5.91334">
        <ele>1177.98</ele>
        <time>2019-05-23T09:26:21.000Z</time>
      </trkpt>
      <trkpt lat="46.34879" lon="5.9135">
        <ele>1183.4</ele>
        <time>2019-05-23T09:28:12.000Z</time>
      </trkpt>
      <trkpt lat="46.34881" lon="5.91377">
        <ele>1181.7</ele>
        <time>2019-05-23T09:28:26.000Z</time>
      </trkpt>
      <trkpt lat="46.34884" lon="5.91403">
        <ele>1184.97</ele>
        <time>2019-05-23T09:28:44.000Z</time>
      </trkpt>
      <trkpt lat="46.34883" lon="5.91429">
        <ele>1187.01</ele>
        <time>2019-05-23T09:29:00.000Z</time>
      </trkpt>
      <trkpt lat="46.34893" lon="5.91451">
        <ele>1187.5</ele>
        <time>2019-05-23T09:29:34.000Z</time>
      </trkpt>
      <trkpt lat="46.34898" lon="5.91477">
        <ele>1188.05</ele>
        <time>2019-05-23T09:29:49.000Z</time>
      </trkpt>
      <trkpt lat="46.34909" lon="5.91497">
        <ele>1188.35</ele>
        <time>2019-05-23T09:30:06.000Z</time>
      </trkpt>
      <trkpt lat="46.34921" lon="5.91517">
        <ele>1190.54</ele>
        <time>2019-05-23T09:30:23.000Z</time>
      </trkpt>
      <trkpt lat="46.34931" lon="5.91539">
        <ele>1192.46</ele>
        <time>2019-05-23T09:31:27.000Z</time>
      </trkpt>
      <trkpt lat="46.34947" lon="5.91555">
        <ele>1192.15</ele>
        <time>2019-05-23T09:32:01.000Z</time>
      </trkpt>
      <trkpt lat="46.34962" lon="5.91571">
        <ele>1191.43</ele>
        <time>2019-05-23T09:32:14.000Z</time>
      </trkpt>
      <trkpt lat="46.34977" lon="5.91588">
        <ele>1196.4</ele>
        <time>2019-05-23T09:32:27.000Z</time>
      </trkpt>
      <trkpt lat="46.34994" lon="5.91601">
        <ele>1196.4</ele>
        <time>2019-05-23T09:32:41.000Z</time>
      </trkpt>
      <trkpt lat="46.35008" lon="5.91621">
        <ele>1193.81</ele>
        <time>2019-05-23T09:32:52.000Z</time>
      </trkpt>
      <trkpt lat="46.35025" lon="5.91632">
        <ele>1195.22</ele>
        <time>2019-05-23T09:33:04.000Z</time>
      </trkpt>
      <trkpt lat="46.35039" lon="5.9165">
        <ele>1195.24</ele>
        <time>2019-05-23T09:33:18.000Z</time>
      </trkpt>
      <trkpt lat="46.35052" lon="5.91671">
        <ele>1203.38</ele>
        <time>2019-05-23T09:33:31.000Z</time>
      </trkpt>
      <trkpt lat="46.35067" lon="5.91686">
        <ele>1202.9</ele>
        <time>2019-05-23T09:33:44.000Z</time>
      </trkpt>
      <trkpt lat="46.35086" lon="5.91696">
        <ele>1199.73</ele>
        <time>2019-05-23T09:33:58.000Z</time>
      </trkpt>
      <trkpt lat="46.35103" lon="5.91707">
        <ele>1197.99</ele>
        <time>2019-05-23T09:34:11.000Z</time>
      </trkpt>
      <trkpt lat="46.35119" lon="5.91721">
        <ele>1199.23</ele>
        <time>2019-05-23T09:34:26.000Z</time>
      </trkpt>
      <trkpt lat="46.35132" lon="5.91741">
        <ele>1197.46</ele>
        <time>2019-05-23T09:34:39.000Z</time>
      </trkpt>
      <trkpt lat="46.35142" lon="5.91762">
        <ele>1193.66</ele>
        <time>2019-05-23T09:34:53.000Z</time>
      </trkpt>
      <trkpt lat="46.35151" lon="5.91787">
        <ele>1195.66</ele>
        <time>2019-05-23T09:35:33.000Z</time>
      </trkpt>
      <trkpt lat="46.35161" lon="5.9181">
        <ele>1199.42</ele>
        <time>2019-05-23T09:35:46.000Z</time>
      </trkpt>
      <trkpt lat="46.35178" lon="5.9182">
        <ele>1202.36</ele>
        <time>2019-05-23T09:35:59.000Z</time>
      </trkpt>
      <trkpt lat="46.35195" lon="5.91832">
        <ele>1203.2</ele>
        <time>2019-05-23T09:36:12.000Z</time>
      </trkpt>
      <trkpt lat="46.35212" lon="5.91842">
        <ele>1200.81</ele>
        <time>2019-05-23T09:36:25.000Z</time>
      </trkpt>
      <trkpt lat="46.3523" lon="5.91851">
        <ele>1198.2</ele>
        <time>2019-05-23T09:36:39.000Z</time>
      </trkpt>
      <trkpt lat="46.35245" lon="5.91865">
        <ele>1196.13</ele>
        <time>2019-05-23T09:36:52.000Z</time>
      </trkpt>
      <trkpt lat="46.35262" lon="5.91877">
        <ele>1199.39</ele>
        <time>2019-05-23T09:37:05.000Z</time>
      </trkpt>
      <trkpt lat="46.35279" lon="5.91887">
        <ele>1197.71</ele>
        <time>2019-05-23T09:37:19.000Z</time>
      </trkpt>
      <trkpt lat="46.35297" lon="5.91898">
        <ele>1196.86</ele>
        <time>2019-05-23T09:37:32.000Z</time>
      </trkpt>
      <trkpt lat="46.35317" lon="5.91905">
        <ele>1202.64</ele>
        <time>2019-05-23T09:37:49.000Z</time>
      </trkpt>
      <trkpt lat="46.35334" lon="5.91918">
        <ele>1202.43</ele>
        <time>2019-05-23T09:38:04.000Z</time>
      </trkpt>
      <trkpt lat="46.35353" lon="5.91926">
        <ele>1203.11</ele>
        <time>2019-05-23T09:38:17.000Z</time>
      </trkpt>
      <trkpt lat="46.35369" lon="5.91938">
        <ele>1198.91</ele>
        <time>2019-05-23T09:38:29.000Z</time>
      </trkpt>
      <trkpt lat="46.35387" lon="5.91945">
        <ele>1200.02</ele>
        <time>2019-05-23T09:38:42.000Z</time>
      </trkpt>
      <trkpt lat="46.35404" lon="5.91955">
        <ele>1201.31</ele>
        <time>2019-05-23T09:38:55.000Z</time>
      </trkpt>
      <trkpt lat="46.35423" lon="5.9196">
        <ele>1199.05</ele>
        <time>2019-05-23T09:39:10.000Z</time>
      </trkpt>
      <trkpt lat="46.3544" lon="5.91972">
        <ele>1198.11</ele>
        <time>2019-05-23T09:39:44.000Z</time>
      </trkpt>
      <trkpt lat="46.35457" lon="5.91983">
        <ele>1198.38</ele>
        <time>2019-05-23T09:39:59.000Z</time>
      </trkpt>
      <trkpt lat="46.35474" lon="5.91995">
        <ele>1193.62</ele>
        <time>2019-05-23T09:40:12.000Z</time>
      </trkpt>
      <trkpt lat="46.35493" lon="5.92">
        <ele>1197.47</ele>
        <time>2019-05-23T09:40:26.000Z</time>
      </trkpt>
      <trkpt lat="46.3551" lon="5.9201">
        <ele>1198.42</ele>
        <time>2019-05-23T09:40:40.000Z</time>
      </trkpt>
      <trkpt lat="46.35526" lon="5.9202">
        <ele>1198.17</ele>
        <time>2019-05-23T09:40:52.000Z</time>
      </trkpt>
      <trkpt lat="46.35543" lon="5.92032">
        <ele>1202.68</ele>
        <time>2019-05-23T09:41:06.000Z</time>
      </trkpt>
      <trkpt lat="46.35555" lon="5.92051">
        <ele>1205.32</ele>
        <time>2019-05-23T09:41:21.000Z</time>
      </trkpt>
      <trkpt lat="46.3557" lon="5.92068">
        <ele>1202.34</ele>
        <time>2019-05-23T09:41:34.000Z</time>
      </trkpt>
      <trkpt lat="46.35583" lon="5.92091">
        <ele>1208.23</ele>
        <time>2019-05-23T09:41:47.000Z</time>
      </trkpt>
      <trkpt lat="46.35596" lon="5.9211">
        <ele>1206.08</ele>
        <time>2019-05-23T09:42:02.000Z</time>
      </trkpt>
      <trkpt lat="46.35611" lon="5.92125">
        <ele>1208.53</ele>
        <time>2019-05-23T09:42:13.000Z</time>
      </trkpt>
      <trkpt lat="46.35619" lon="5.9215">
        <ele>1206.12</ele>
        <time>2019-05-23T09:42:25.000Z</time>
      </trkpt>
      <trkpt lat="46.35637" lon="5.92158">
        <ele>1212.98</ele>
        <time>2019-05-23T09:42:37.000Z</time>
      </trkpt>
      <trkpt lat="46.3565" lon="5.92137">
        <ele>1199.08</ele>
        <time>2019-05-23T09:42:46.000Z</time>
      </trkpt>
      <trkpt lat="46.3566" lon="5.92114">
        <ele>1194.4</ele>
        <time>2019-05-23T09:42:59.000Z</time>
      </trkpt>
      <trkpt lat="46.35672" lon="5.92092">
        <ele>1207.45</ele>
        <time>2019-05-23T09:43:16.000Z</time>
      </trkpt>
      <trkpt lat="46.35682" lon="5.92069">
        <ele>1198.91</ele>
        <time>2019-05-23T09:43:26.000Z</time>
      </trkpt>
      <trkpt lat="46.35687" lon="5.92043">
        <ele>1200.01</ele>
        <time>2019-05-23T09:43:37.000Z</time>
      </trkpt>
      <trkpt lat="46.35692" lon="5.92018">
        <ele>1195.52</ele>
        <time>2019-05-23T09:43:51.000Z</time>
      </trkpt>
      <trkpt lat="46.35693" lon="5.9199">
        <ele>1201.07</ele>
        <time>2019-05-23T09:44:04.000Z</time>
      </trkpt>
      <trkpt lat="46.35692" lon="5.91963">
        <ele>1197.03</ele>
        <time>2019-05-23T09:44:19.000Z</time>
      </trkpt>
      <trkpt lat="46.357" lon="5.91939">
        <ele>1192.76</ele>
        <time>2019-05-23T09:44:33.000Z</time>
      </trkpt>
      <trkpt lat="46.35697" lon="5.91912">
        <ele>1193.19</ele>
        <time>2019-05-23T09:44:45.000Z</time>
      </trkpt>
      <trkpt lat="46.35696" lon="5.91886">
        <ele>1189.54</ele>
        <time>2019-05-23T09:44:57.000Z</time>
      </trkpt>
      <trkpt lat="46.35698" lon="5.91859">
        <ele>1182.21</ele>
        <time>2019-05-23T09:45:11.000Z</time>
      </trkpt>
      <trkpt lat="46.35701" lon="5.91833">
        <ele>1182.61</ele>
        <time>2019-05-23T09:45:27.000Z</time>
      </trkpt>
      <trkpt lat="46.357" lon="5.91807">
        <ele>1179.41</ele>
        <time>2019-05-23T09:45:38.000Z</time>
      </trkpt>
      <trkpt lat="46.35701" lon="5.91779">
        <ele>1181.41</ele>
        <time>2019-05-23T09:45:51.000Z</time>
      </trkpt>
      <trkpt lat="46.35696" lon="5.91753">
        <ele>1179.73</ele>
        <time>2019-05-23T09:46:04.000Z</time>
      </trkpt>
      <trkpt lat="46.35691" lon="5.91727">
        <ele>1175.5</ele>
        <time>2019-05-23T09:46:48.000Z</time>
      </trkpt>
      <trkpt lat="46.35691" lon="5.917">
        <ele>1178.41</ele>
        <time>2019-05-23T09:47:01.000Z</time>
      </trkpt>
      <trkpt lat="46.35691" lon="5.91674">
        <ele>1175.72</ele>
        <time>2019-05-23T09:47:14.000Z</time>
      </trkpt>
      <trkpt lat="46.357" lon="5.9165">
        <ele>1166.55</ele>
        <time>2019-05-23T09:47:56.000Z</time>
      </trkpt>
      <trkpt lat="46.35714" lon="5.91632">
        <ele>1169.47</ele>
        <time>2019-05-23T09:48:25.000Z</time>
      </trkpt>
      <trkpt lat="46.35723" lon="5.9161">
        <ele>1164.02</ele>
        <time>2019-05-23T09:48:38.000Z</time>
      </trkpt>
      <trkpt lat="46.3573" lon="5.91585">
        <ele>1156.45</ele>
        <time>2019-05-23T09:48:52.000Z</time>
      </trkpt>
      <trkpt lat="46.35748" lon="5.91576">
        <ele>1158</ele>
        <time>2019-05-23T09:49:07.000Z</time>
      </trkpt>
      <trkpt lat="46.35765" lon="5.91566">
        <ele>1154.7</ele>
        <time>2019-05-23T09:49:21.000Z</time>
      </trkpt>
      <trkpt lat="46.35783" lon="5.9156">
        <ele>1155.11</ele>
        <time>2019-05-23T09:49:36.000Z</time>
      </trkpt>
      <trkpt lat="46.35801" lon="5.91565">
        <ele>1156.99</ele>
        <time>2019-05-23T09:49:49.000Z</time>
      </trkpt>
      <trkpt lat="46.35819" lon="5.9157">
        <ele>1155.72</ele>
        <time>2019-05-23T09:50:01.000Z</time>
      </trkpt>
      <trkpt lat="46.35836" lon="5.91578">
        <ele>1151.44</ele>
        <time>2019-05-23T09:50:15.000Z</time>
      </trkpt>
      <trkpt lat="46.35853" lon="5.91591">
        <ele>1147.84</ele>
        <time>2019-05-23T09:50:26.000Z</time>
      </trkpt>
      <trkpt lat="46.35867" lon="5.91608">
        <ele>1149.37</ele>
        <time>2019-05-23T09:50:43.000Z</time>
      </trkpt>
      <trkpt lat="46.35881" lon="5.91629">
        <ele>1141.4</ele>
        <time>2019-05-23T09:50:57.000Z</time>
      </trkpt>
      <trkpt lat="46.35898" lon="5.91618">
        <ele>1134.86</ele>
        <time>2019-05-23T09:51:10.000Z</time>
      </trkpt>
      <trkpt lat="46.35913" lon="5.91601">
        <ele>1129.43</ele>
        <time>2019-05-23T09:51:24.000Z</time>
      </trkpt>
      <trkpt lat="46.35931" lon="5.91612">
        <ele>1126.47</ele>
        <time>2019-05-23T09:51:46.000Z</time>
      </trkpt>
      <trkpt lat="46.35945" lon="5.91628">
        <ele>1121.65</ele>
        <time>2019-05-23T09:51:58.000Z</time>
      </trkpt>
      <trkpt lat="46.35956" lon="5.91649">
        <ele>1120.91</ele>
        <time>2019-05-23T09:52:08.000Z</time>
      </trkpt>
      <trkpt lat="46.35974" lon="5.91657">
        <ele>1122</ele>
        <time>2019-05-23T09:52:24.000Z</time>
      </trkpt>
      <trkpt lat="46.35987" lon="5.91675">
        <ele>1116.42</ele>
        <time>2019-05-23T09:52:34.000Z</time>
      </trkpt>
      <trkpt lat="46.36003" lon="5.91689">
        <ele>1114.54</ele>
        <time>2019-05-23T09:52:50.000Z</time>
      </trkpt>
      <trkpt lat="46.36017" lon="5.91705">
        <ele>1115.65</ele>
        <time>2019-05-23T09:53:00.000Z</time>
      </trkpt>
      <trkpt lat="46.36031" lon="5.91723">
        <ele>1123.28</ele>
        <time>2019-05-23T09:53:20.000Z</time>
      </trkpt>
      <trkpt lat="46.36043" lon="5.91744">
        <ele>1116.24</ele>
        <time>2019-05-23T09:53:32.000Z</time>
      </trkpt>
      <trkpt lat="46.36058" lon="5.91759">
        <ele>1112.32</ele>
        <time>2019-05-23T09:53:47.000Z</time>
      </trkpt>
      <trkpt lat="46.36069" lon="5.91782">
        <ele>1112.65</ele>
        <time>2019-05-23T09:54:01.000Z</time>
      </trkpt>
      <trkpt lat="46.36083" lon="5.91801">
        <ele>1115.84</ele>
        <time>2019-05-23T09:54:15.000Z</time>
      </trkpt>
      <trkpt lat="46.36094" lon="5.91825">
        <ele>1117.5</ele>
        <time>2019-05-23T09:54:28.000Z</time>
      </trkpt>
      <trkpt lat="46.36107" lon="5.91845">
        <ele>1121.05</ele>
        <time>2019-05-23T09:54:53.000Z</time>
      </trkpt>
      <trkpt lat="46.36123" lon="5.91859">
        <ele>1111.34</ele>
        <time>2019-05-23T09:55:03.000Z</time>
      </trkpt>
      <trkpt lat="46.3614" lon="5.91868">
        <ele>1107.82</ele>
        <time>2019-05-23T09:55:15.000Z</time>
      </trkpt>
      <trkpt lat="46.36158" lon="5.91873">
        <ele>1106.29</ele>
        <time>2019-05-23T09:55:26.000Z</time>
      </trkpt>
      <trkpt lat="46.36176" lon="5.9188">
        <ele>1103.13</ele>
        <time>2019-05-23T09:55:45.000Z</time>
      </trkpt>
      <trkpt lat="46.36193" lon="5.9189">
        <ele>1098.33</ele>
        <time>2019-05-23T09:56:02.000Z</time>
      </trkpt>
      <trkpt lat="46.36205" lon="5.91911">
        <ele>1090.63</ele>
        <time>2019-05-23T09:56:18.000Z</time>
      </trkpt>
      <trkpt lat="46.36221" lon="5.91896">
        <ele>1080.89</ele>
        <time>2019-05-23T09:56:34.000Z</time>
      </trkpt>
      <trkpt lat="46.36229" lon="5.91871">
        <ele>1080.6</ele>
        <time>2019-05-23T09:56:52.000Z</time>
      </trkpt>
      <trkpt lat="46.36245" lon="5.91885">
        <ele>1069.41</ele>
        <time>2019-05-23T09:57:34.000Z</time>
      </trkpt>
      <trkpt lat="46.36263" lon="5.91892">
        <ele>1064.53</ele>
        <time>2019-05-23T09:57:50.000Z</time>
      </trkpt>
      <trkpt lat="46.36278" lon="5.91912">
        <ele>1060.05</ele>
        <time>2019-05-23T09:58:04.000Z</time>
      </trkpt>
      <trkpt lat="46.36289" lon="5.91934">
        <ele>1053.68</ele>
        <time>2019-05-23T09:58:19.000Z</time>
      </trkpt>
      <trkpt lat="46.36301" lon="5.91957">
        <ele>1057.18</ele>
        <time>2019-05-23T09:58:31.000Z</time>
      </trkpt>
      <trkpt lat="46.36314" lon="5.91975">
        <ele>1058.74</ele>
        <time>2019-05-23T09:58:45.000Z</time>
      </trkpt>
      <trkpt lat="46.36329" lon="5.9199">
        <ele>1061.46</ele>
        <time>2019-05-23T09:58:58.000Z</time>
      </trkpt>
      <trkpt lat="46.36338" lon="5.92015">
        <ele>1058.53</ele>
        <time>2019-05-23T09:59:08.000Z</time>
      </trkpt>
      <trkpt lat="46.36352" lon="5.92032">
        <ele>1045.85</ele>
        <time>2019-05-23T09:59:21.000Z</time>
      </trkpt>
      <trkpt lat="46.36367" lon="5.92048">
        <ele>1042.56</ele>
        <time>2019-05-23T09:59:33.000Z</time>
      </trkpt>
      <trkpt lat="46.36383" lon="5.92065">
        <ele>1045.05</ele>
        <time>2019-05-23T09:59:47.000Z</time>
      </trkpt>
      <trkpt lat="46.36396" lon="5.92084">
        <ele>1049.51</ele>
        <time>2019-05-23T09:59:59.000Z</time>
      </trkpt>
      <trkpt lat="46.36411" lon="5.92101">
        <ele>1050.15</ele>
        <time>2019-05-23T10:00:15.000Z</time>
      </trkpt>
      <trkpt lat="46.36423" lon="5.92123">
        <ele>1047.43</ele>
        <time>2019-05-23T10:00:26.000Z</time>
      </trkpt>
      <trkpt lat="46.36438" lon="5.92137">
        <ele>1041.37</ele>
        <time>2019-05-23T10:00:41.000Z</time>
      </trkpt>
      <trkpt lat="46.3645" lon="5.92157">
        <ele>1038.1</ele>
        <time>2019-05-23T10:00:55.000Z</time>
      </trkpt>
      <trkpt lat="46.36467" lon="5.92167">
        <ele>1030.79</ele>
        <time>2019-05-23T10:01:09.000Z</time>
      </trkpt>
      <trkpt lat="46.3648" lon="5.92186">
        <ele>1033.43</ele>
        <time>2019-05-23T10:01:24.000Z</time>
      </trkpt>
      <trkpt lat="46.36494" lon="5.92203">
        <ele>1033.2</ele>
        <time>2019-05-23T10:01:37.000Z</time>
      </trkpt>
      <trkpt lat="46.36511" lon="5.92214">
        <ele>1026.72</ele>
        <time>2019-05-23T10:01:50.000Z</time>
      </trkpt>
      <trkpt lat="46.36527" lon="5.92225">
        <ele>1028.36</ele>
        <time>2019-05-23T10:02:01.000Z</time>
      </trkpt>
      <trkpt lat="46.3654" lon="5.92244">
        <ele>1028.46</ele>
        <time>2019-05-23T10:02:17.000Z</time>
      </trkpt>
      <trkpt lat="46.36557" lon="5.92257">
        <ele>1021.15</ele>
        <time>2019-05-23T10:02:48.000Z</time>
      </trkpt>
      <trkpt lat="46.36569" lon="5.92279">
        <ele>1015.42</ele>
        <time>2019-05-23T10:03:05.000Z</time>
      </trkpt>
      <trkpt lat="46.36584" lon="5.92296">
        <ele>1009.15</ele>
        <time>2019-05-23T10:03:21.000Z</time>
      </trkpt>
      <trkpt lat="46.36601" lon="5.92306">
        <ele>1006.43</ele>
        <time>2019-05-23T10:03:32.000Z</time>
      </trkpt>
      <trkpt lat="46.36618" lon="5.9232">
        <ele>999.04</ele>
        <time>2019-05-23T10:03:48.000Z</time>
      </trkpt>
      <trkpt lat="46.36632" lon="5.92336">
        <ele>991.46</ele>
        <time>2019-05-23T10:04:10.000Z</time>
      </trkpt>
      <trkpt lat="46.36647" lon="5.92351">
        <ele>986.43</ele>
        <time>2019-05-23T10:04:18.000Z</time>
      </trkpt>
      <trkpt lat="46.36665" lon="5.92358">
        <ele>980.44</ele>
        <time>2019-05-23T10:04:31.000Z</time>
      </trkpt>
      <trkpt lat="46.36682" lon="5.92368">
        <ele>977.45</ele>
        <time>2019-05-23T10:04:43.000Z</time>
      </trkpt>
      <trkpt lat="46.367" lon="5.92377">
        <ele>969.81</ele>
        <time>2019-05-23T10:05:02.000Z</time>
      </trkpt>
      <trkpt lat="46.36718" lon="5.92387">
        <ele>967.05</ele>
        <time>2019-05-23T10:07:00.000Z</time>
      </trkpt>
      <trkpt lat="46.36736" lon="5.92384">
        <ele>966.66</ele>
        <time>2019-05-23T10:07:16.000Z</time>
      </trkpt>
      <trkpt lat="46.36748" lon="5.92364">
        <ele>969.47</ele>
        <time>2019-05-23T10:07:29.000Z</time>
      </trkpt>
      <trkpt lat="46.36762" lon="5.92347">
        <ele>974.47</ele>
        <time>2019-05-23T10:07:42.000Z</time>
      </trkpt>
      <trkpt lat="46.36778" lon="5.92332">
        <ele>975.05</ele>
        <time>2019-05-23T10:08:17.000Z</time>
      </trkpt>
      <trkpt lat="46.36792" lon="5.9235">
        <ele>967.23</ele>
        <time>2019-05-23T10:09:52.000Z</time>
      </trkpt>
      <trkpt lat="46.36809" lon="5.9236">
        <ele>966.25</ele>
        <time>2019-05-23T10:10:06.000Z</time>
      </trkpt>
      <trkpt lat="46.36824" lon="5.92376">
        <ele>965.11</ele>
        <time>2019-05-23T10:10:20.000Z</time>
      </trkpt>
      <trkpt lat="46.36841" lon="5.92385">
        <ele>959.73</ele>
        <time>2019-05-23T10:10:35.000Z</time>
      </trkpt>
      <trkpt lat="46.36858" lon="5.92395">
        <ele>957.04</ele>
        <time>2019-05-23T10:10:53.000Z</time>
      </trkpt>
      <trkpt lat="46.36877" lon="5.92397">
        <ele>951.57</ele>
        <time>2019-05-23T10:11:08.000Z</time>
      </trkpt>
      <trkpt lat="46.36894" lon="5.92388">
        <ele>953.68</ele>
        <time>2019-05-23T10:11:19.000Z</time>
      </trkpt>
      <trkpt lat="46.36914" lon="5.92388">
        <ele>951.42</ele>
        <time>2019-05-23T10:11:32.000Z</time>
      </trkpt>
      <trkpt lat="46.36932" lon="5.92379">
        <ele>941.72</ele>
        <time>2019-05-23T10:11:48.000Z</time>
      </trkpt>
      <trkpt lat="46.36949" lon="5.9237">
        <ele>937.29</ele>
        <time>2019-05-23T10:12:01.000Z</time>
      </trkpt>
      <trkpt lat="46.36965" lon="5.92359">
        <ele>937.75</ele>
        <time>2019-05-23T10:12:15.000Z</time>
      </trkpt>
      <trkpt lat="46.36978" lon="5.9234">
        <ele>936.24</ele>
        <time>2019-05-23T10:12:28.000Z</time>
      </trkpt>
      <trkpt lat="46.36993" lon="5.92325">
        <ele>933.54</ele>
        <time>2019-05-23T10:12:43.000Z</time>
      </trkpt>
      <trkpt lat="46.37001" lon="5.92301">
        <ele>930.69</ele>
        <time>2019-05-23T10:12:57.000Z</time>
      </trkpt>
      <trkpt lat="46.37015" lon="5.9228">
        <ele>926.45</ele>
        <time>2019-05-23T10:13:11.000Z</time>
      </trkpt>
      <trkpt lat="46.3703" lon="5.92266">
        <ele>924.87</ele>
        <time>2019-05-23T10:13:26.000Z</time>
      </trkpt>
      <trkpt lat="46.37048" lon="5.92261">
        <ele>916.9</ele>
        <time>2019-05-23T10:13:43.000Z</time>
      </trkpt>
      <trkpt lat="46.37063" lon="5.92244">
        <ele>915.22</ele>
        <time>2019-05-23T10:13:56.000Z</time>
      </trkpt>
      <trkpt lat="46.37078" lon="5.92229">
        <ele>909.51</ele>
        <time>2019-05-23T10:14:10.000Z</time>
      </trkpt>
      <trkpt lat="46.37089" lon="5.92207">
        <ele>910.43</ele>
        <time>2019-05-23T10:14:21.000Z</time>
      </trkpt>
      <trkpt lat="46.37095" lon="5.92182">
        <ele>908.31</ele>
        <time>2019-05-23T10:14:43.000Z</time>
      </trkpt>
      <trkpt lat="46.37094" lon="5.92155">
        <ele>910.78</ele>
        <time>2019-05-23T10:15:00.000Z</time>
      </trkpt>
      <trkpt lat="46.37106" lon="5.92133">
        <ele>914.53</ele>
        <time>2019-05-23T10:15:33.000Z</time>
      </trkpt>
      <trkpt lat="46.37116" lon="5.9211">
        <ele>915.24</ele>
        <time>2019-05-23T10:15:48.000Z</time>
      </trkpt>
      <trkpt lat="46.37126" lon="5.92087">
        <ele>916.48</ele>
        <time>2019-05-23T10:16:02.000Z</time>
      </trkpt>
      <trkpt lat="46.37139" lon="5.92067">
        <ele>913.27</ele>
        <time>2019-05-23T10:16:15.000Z</time>
      </trkpt>
      <trkpt lat="46.37142" lon="5.9204">
        <ele>910.72</ele>
        <time>2019-05-23T10:16:29.000Z</time>
      </trkpt>
      <trkpt lat="46.3715" lon="5.92014">
        <ele>907.65</ele>
        <time>2019-05-23T10:16:41.000Z</time>
      </trkpt>
      <trkpt lat="46.37157" lon="5.91989">
        <ele>903.42</ele>
        <time>2019-05-23T10:16:54.000Z</time>
      </trkpt>
      <trkpt lat="46.37158" lon="5.91961">
        <ele>907.12</ele>
        <time>2019-05-23T10:17:07.000Z</time>
      </trkpt>
      <trkpt lat="46.37153" lon="5.91935">
        <ele>908.67</ele>
        <time>2019-05-23T10:17:21.000Z</time>
      </trkpt>
      <trkpt lat="46.37152" lon="5.91908">
        <ele>915.96</ele>
        <time>2019-05-23T10:17:37.000Z</time>
      </trkpt>
      <trkpt lat="46.37151" lon="5.9188">
        <ele>918.9</ele>
        <time>2019-05-23T10:17:54.000Z</time>
      </trkpt>
      <trkpt lat="46.37138" lon="5.9186">
        <ele>924.39</ele>
        <time>2019-05-23T10:18:10.000Z</time>
      </trkpt>
      <trkpt lat="46.37121" lon="5.91851">
        <ele>924.46</ele>
        <time>2019-05-23T10:18:25.000Z</time>
      </trkpt>
      <trkpt lat="46.37113" lon="5.91827">
        <ele>923.18</ele>
        <time>2019-05-23T10:18:52.000Z</time>
      </trkpt>
      <trkpt lat="46.37113" lon="5.918">
        <ele>922.49</ele>
        <time>2019-05-23T10:19:09.000Z</time>
      </trkpt>
      <trkpt lat="46.37117" lon="5.91774">
        <ele>928.42</ele>
        <time>2019-05-23T10:19:22.000Z</time>
      </trkpt>
      <trkpt lat="46.37121" lon="5.91747">
        <ele>934.08</ele>
        <time>2019-05-23T10:19:38.000Z</time>
      </trkpt>
      <trkpt lat="46.37125" lon="5.9172">
        <ele>929.87</ele>
        <time>2019-05-23T10:19:55.000Z</time>
      </trkpt>
      <trkpt lat="46.37125" lon="5.91694">
        <ele>929.46</ele>
        <time>2019-05-23T10:20:12.000Z</time>
      </trkpt>
      <trkpt lat="46.37132" lon="5.91669">
        <ele>936.57</ele>
        <time>2019-05-23T10:20:26.000Z</time>
      </trkpt>
      <trkpt lat="46.37141" lon="5.91645">
        <ele>941.53</ele>
        <time>2019-05-23T10:20:41.000Z</time>
      </trkpt>
      <trkpt lat="46.37151" lon="5.9162">
        <ele>941.36</ele>
        <time>2019-05-23T10:20:55.000Z</time>
      </trkpt>
      <trkpt lat="46.37154" lon="5.91595">
        <ele>942.02</ele>
        <time>2019-05-23T10:21:06.000Z</time>
      </trkpt>
      <trkpt lat="46.37146" lon="5.9157">
        <ele>946.39</ele>
        <time>2019-05-23T10:21:20.000Z</time>
      </trkpt>
      <trkpt lat="46.37144" lon="5.91543">
        <ele>945.51</ele>
        <time>2019-05-23T10:21:36.000Z</time>
      </trkpt>
      <trkpt lat="46.37141" lon="5.91516">
        <ele>946.61</ele>
        <time>2019-05-23T10:21:51.000Z</time>
      </trkpt>
      <trkpt lat="46.37132" lon="5.91492">
        <ele>957.1</ele>
        <time>2019-05-23T10:22:07.000Z</time>
      </trkpt>
      <trkpt lat="46.37128" lon="5.91464">
        <ele>952.01</ele>
        <time>2019-05-23T10:22:22.000Z</time>
      </trkpt>
      <trkpt lat="46.37122" lon="5.91438">
        <ele>954.03</ele>
        <time>2019-05-23T10:22:38.000Z</time>
      </trkpt>
      <trkpt lat="46.37119" lon="5.91412">
        <ele>957.31</ele>
        <time>2019-05-23T10:22:51.000Z</time>
      </trkpt>
      <trkpt lat="46.37121" lon="5.91385">
        <ele>958.47</ele>
        <time>2019-05-23T10:23:05.000Z</time>
      </trkpt>
      <trkpt lat="46.37119" lon="5.91358">
        <ele>950.45</ele>
        <time>2019-05-23T10:23:20.000Z</time>
      </trkpt>
      <trkpt lat="46.37126" lon="5.91331">
        <ele>957</ele>
        <time>2019-05-23T10:23:32.000Z</time>
      </trkpt>
      <trkpt lat="46.37126" lon="5.91303">
        <ele>953.63</ele>
        <time>2019-05-23T10:23:49.000Z</time>
      </trkpt>
      <trkpt lat="46.37133" lon="5.91278">
        <ele>959.32</ele>
        <time>2019-05-23T10:24:02.000Z</time>
      </trkpt>
      <trkpt lat="46.37127" lon="5.91252">
        <ele>965.51</ele>
        <time>2019-05-23T10:24:17.000Z</time>
      </trkpt>
      <trkpt lat="46.37123" lon="5.91226">
        <ele>965.67</ele>
        <time>2019-05-23T10:24:30.000Z</time>
      </trkpt>
      <trkpt lat="46.37113" lon="5.91203">
        <ele>965.39</ele>
        <time>2019-05-23T10:24:47.000Z</time>
      </trkpt>
      <trkpt lat="46.37109" lon="5.91177">
        <ele>973.04</ele>
        <time>2019-05-23T10:25:02.000Z</time>
      </trkpt>
      <trkpt lat="46.37099" lon="5.91154">
        <ele>972.02</ele>
        <time>2019-05-23T10:25:16.000Z</time>
      </trkpt>
      <trkpt lat="46.37091" lon="5.91129">
        <ele>974.81</ele>
        <time>2019-05-23T10:25:29.000Z</time>
      </trkpt>
      <trkpt lat="46.37077" lon="5.91112">
        <ele>974.74</ele>
        <time>2019-05-23T10:25:44.000Z</time>
      </trkpt>
      <trkpt lat="46.37065" lon="5.91091">
        <ele>977.08</ele>
        <time>2019-05-23T10:26:03.000Z</time>
      </trkpt>
      <trkpt lat="46.3706" lon="5.91065">
        <ele>982.41</ele>
        <time>2019-05-23T10:26:17.000Z</time>
      </trkpt>
      <trkpt lat="46.3705" lon="5.91041">
        <ele>974.33</ele>
        <time>2019-05-23T10:26:33.000Z</time>
      </trkpt>
      <trkpt lat="46.37043" lon="5.91016">
        <ele>979.49</ele>
        <time>2019-05-23T10:26:46.000Z</time>
      </trkpt>
      <trkpt lat="46.37038" lon="5.9099">
        <ele>981.49</ele>
        <time>2019-05-23T10:27:01.000Z</time>
      </trkpt>
      <trkpt lat="46.3704" lon="5.90965">
        <ele>983.7</ele>
        <time>2019-05-23T10:27:15.000Z</time>
      </trkpt>
      <trkpt lat="46.37041" lon="5.90938">
        <ele>981.1</ele>
        <time>2019-05-23T10:27:30.000Z</time>
      </trkpt>
      <trkpt lat="46.37043" lon="5.90912">
        <ele>987.12</ele>
        <time>2019-05-23T10:27:42.000Z</time>
      </trkpt>
      <trkpt lat="46.37031" lon="5.9089">
        <ele>981.34</ele>
        <time>2019-05-23T10:27:57.000Z</time>
      </trkpt>
      <trkpt lat="46.3702" lon="5.90869">
        <ele>989.7</ele>
        <time>2019-05-23T10:28:12.000Z</time>
      </trkpt>
      <trkpt lat="46.37005" lon="5.90854">
        <ele>996.62</ele>
        <time>2019-05-23T10:28:27.000Z</time>
      </trkpt>
      <trkpt lat="46.37001" lon="5.90827">
        <ele>997.11</ele>
        <time>2019-05-23T10:28:42.000Z</time>
      </trkpt>
      <trkpt lat="46.36996" lon="5.90801">
        <ele>1000.51</ele>
        <time>2019-05-23T10:28:57.000Z</time>
      </trkpt>
      <trkpt lat="46.36997" lon="5.90774">
        <ele>1008.12</ele>
        <time>2019-05-23T10:29:13.000Z</time>
      </trkpt>
      <trkpt lat="46.36998" lon="5.90746">
        <ele>1008.29</ele>
        <time>2019-05-23T10:29:28.000Z</time>
      </trkpt>
      <trkpt lat="46.37004" lon="5.9072">
        <ele>1015.1</ele>
        <time>2019-05-23T10:29:45.000Z</time>
      </trkpt>
      <trkpt lat="46.37003" lon="5.90693">
        <ele>1015.33</ele>
        <time>2019-05-23T10:30:00.000Z</time>
      </trkpt>
      <trkpt lat="46.36997" lon="5.90668">
        <ele>1017.18</ele>
        <time>2019-05-23T10:30:14.000Z</time>
      </trkpt>
      <trkpt lat="46.36996" lon="5.90641">
        <ele>1012.68</ele>
        <time>2019-05-23T10:30:31.000Z</time>
      </trkpt>
      <trkpt lat="46.36994" lon="5.90613">
        <ele>1021.38</ele>
        <time>2019-05-23T10:30:46.000Z</time>
      </trkpt>
      <trkpt lat="46.36986" lon="5.90587">
        <ele>1020.48</ele>
        <time>2019-05-23T10:31:00.000Z</time>
      </trkpt>
      <trkpt lat="46.36984" lon="5.9056">
        <ele>1022.67</ele>
        <time>2019-05-23T10:31:14.000Z</time>
      </trkpt>
      <trkpt lat="46.3698" lon="5.90534">
        <ele>1023.69</ele>
        <time>2019-05-23T10:31:28.000Z</time>
      </trkpt>
      <trkpt lat="46.3698" lon="5.90506">
        <ele>1026.11</ele>
        <time>2019-05-23T10:31:42.000Z</time>
      </trkpt>
      <trkpt lat="46.3698" lon="5.90478">
        <ele>1023.7</ele>
        <time>2019-05-23T10:31:55.000Z</time>
      </trkpt>
      <trkpt lat="46.36974" lon="5.90451">
        <ele>1026.66</ele>
        <time>2019-05-23T10:32:09.000Z</time>
      </trkpt>
    </trkseg>
  </trk>
</gpx>